Observation data for Fort Chadbourne on 07/11/2018      Previous  Date       Current Mesonet Observations  Soil Data  Daily Summary Page  Observations in Plain Language
KCH1 110501Z 30003KT 25/20 A301 RMK A01 T02480203  RH  076%=      5-min Rain = 0
KCH1 110502Z 30003KT 25/20 A301 RMK A01 T02470203  RH  077%=      5-min Rain = 0
KCH1 110503Z 31002KT 25/20 A301 RMK A01 T02460203  RH  077%=      5-min Rain = 0
KCH1 110504Z 32002KT 25/20 A301 RMK A01 T02450203  RH  077%=      5-min Rain = 0
KCH1 110505Z 32002KT 24/20 A301 RMK A01 T02440202  RH  078%=      5-min Rain = 0
KCH1 110506Z 32003KT 24/20 A301 RMK A01 T02430203  RH  078%=      5-min Rain = 0
KCH1 110507Z 31003KT 24/20 A301 RMK A01 T02430202  RH  078%=      5-min Rain = 0
KCH1 110508Z 30003KT 24/20 A301 RMK A01 T02430202  RH  078%=      5-min Rain = 0
KCH1 110509Z 30002KT 24/20 A301 RMK A01 T02430202  RH  078%=      5-min Rain = 0
KCH1 110510Z 34001KT 25/20 A3009 RMK A01 T02450202  RH  077%=      5-min Rain = 0
KCH1 110511Z 03001KT 25/20 A3009 RMK A01 T02450202  RH  077%=      5-min Rain = 0
KCH1 110512Z 10000KT 25/20 A3009 RMK A01 T02450201  RH  076%=      5-min Rain = 0
KCH1 110513Z 03002KT 25/20 A3009 RMK A01 T02460201  RH  076%=      5-min Rain = 0
KCH1 110514Z 02002KT 25/20 A3009 RMK A01 T02450201  RH  076%=      5-min Rain = 0
KCH1 110515Z 01002KT 25/20 A3009 RMK A01 T02450201  RH  076%=      5-min Rain = 0
KCH1 110516Z 01002KT 25/20 A3009 RMK A01 T02450201  RH  077%=      5-min Rain = 0
KCH1 110517Z 01002KT 25/20 A3009 RMK A01 T02450201  RH  077%=      5-min Rain = 0
KCH1 110518Z 03002KT 25/20 A3009 RMK A01 T02450202  RH  077%=      5-min Rain = 0
KCH1 110519Z 03002KT 25/20 A3009 RMK A01 T02450202  RH  077%=      5-min Rain = 0
KCH1 110520Z 02002KT 24/20 A301 RMK A01 T02440203  RH  078%=      5-min Rain = 0
KCH1 110521Z 03002KT 24/20 A301 RMK A01 T02430203  RH  079%=      5-min Rain = 0
KCH1 110522Z 02003KT 24/20 A301 RMK A01 T02410202  RH  079%=      5-min Rain = 0
KCH1 110523Z 04003KT 24/20 A301 RMK A01 T02400202  RH  079%=      5-min Rain = 0
KCH1 110524Z 05003KT 24/20 A301 RMK A01 T02390201  RH  079%=      5-min Rain = 0
KCH1 110525Z 06004KT 24/20 A301 RMK A01 T02390201  RH  079%=      5-min Rain = 0
KCH1 110526Z 06005KT 24/20 A301 RMK A01 T02390202  RH  080%=      5-min Rain = 0
KCH1 110527Z 07004KT 24/20 A301 RMK A01 T02380203  RH  081%=      5-min Rain = 0
KCH1 110528Z 07004KT 24/20 A301 RMK A01 T02370203  RH  081%=      5-min Rain = 0
KCH1 110529Z 07004KT 24/20 A301 RMK A01 T02360203  RH  082%=      5-min Rain = 0
KCH1 110530Z 07004KT 24/20 A301 RMK A01 T02350203  RH  082%=      5-min Rain = 0
KCH1 110531Z 07005KT 23/20 A301 RMK A01 T02340204  RH  083%=      5-min Rain = 0
KCH1 110532Z 08004KT 23/20 A301 RMK A01 T02330204  RH  084%=      5-min Rain = 0
KCH1 110533Z 08004KT 23/20 A301 RMK A01 T02320204  RH  085%=      5-min Rain = 0
KCH1 110534Z 07004KT 23/20 A301 RMK A01 T02310204  RH  085%=      5-min Rain = 0
KCH1 110535Z 07004KT 23/20 A301 RMK A01 T02300204  RH  085%=      5-min Rain = 0
KCH1 110536Z 07004KT 23/20 A301 RMK A01 T02300204  RH  085%=      5-min Rain = 0
KCH1 110537Z 07004KT 23/20 A301 RMK A01 T02300203  RH  085%=      5-min Rain = 0
KCH1 110538Z 07005KT 23/20 A301 RMK A01 T02300202  RH  085%=      5-min Rain = 0
KCH1 110539Z 07005KT 23/20 A301 RMK A01 T02300202  RH  084%=      5-min Rain = 0
KCH1 110540Z 07004KT 23/20 A301 RMK A01 T02310201  RH  084%=      5-min Rain = 0
KCH1 110541Z 07004KT 23/20 A301 RMK A01 T02310201  RH  083%=      5-min Rain = 0
KCH1 110542Z 07003KT 23/20 A301 RMK A01 T02310202  RH  084%=      5-min Rain = 0
KCH1 110543Z 07003KT 23/20 A301 RMK A01 T02310202  RH  083%=      5-min Rain = 0
KCH1 110544Z 07003KT 23/20 A301 RMK A01 T02320202  RH  083%=      5-min Rain = 0
KCH1 110545Z 07004KT 23/20 A301 RMK A01 T02310201  RH  083%=      5-min Rain = 0
KCH1 110546Z 07005KT 23/20 A301 RMK A01 T02310201  RH  083%=      5-min Rain = 0
KCH1 110547Z 07005KT 23/20 A301 RMK A01 T02310201  RH  083%=      5-min Rain = 0
KCH1 110548Z 07004KT 23/20 A301 RMK A01 T02310200  RH  083%=      5-min Rain = 0
KCH1 110549Z 07004KT 23/20 A301 RMK A01 T02320200  RH  082%=      5-min Rain = 0
KCH1 110550Z 07004KT 23/20 A301 RMK A01 T02320200  RH  082%=      5-min Rain = 0
KCH1 110551Z 06003KT 23/20 A301 RMK A01 T02330200  RH  082%=      5-min Rain = 0
KCH1 110552Z 06002KT 23/20 A301 RMK A01 T02330201  RH  082%=      5-min Rain = 0
KCH1 110553Z 06003KT 23/20 A301 RMK A01 T02320200  RH  082%=      5-min Rain = 0
KCH1 110554Z 05003KT 23/20 A301 RMK A01 T02330199  RH  082%=      5-min Rain = 0
KCH1 110555Z 06003KT 23/20 A301 RMK A01 T02320199  RH  081%=      5-min Rain = 0
KCH1 110556Z 07003KT 23/20 A301 RMK A01 T02330199  RH  081%=      5-min Rain = 0
KCH1 110557Z 07002KT 23/20 A301 RMK A01 T02330200  RH  081%=      5-min Rain = 0
KCH1 110558Z 08002KT 23/20 A301 RMK A01 T02340200  RH  081%=      5-min Rain = 0
KCH1 110559Z 08002KT 23/20 A3009 RMK A01 T02330200  RH  081%=      5-min Rain = 0
KCH1 110600Z 08003KT 23/20 A3009 RMK A01 T02330200  RH  082%=      5-min Rain = 0
KCH1 110601Z 08003KT 23/20 A3009 RMK A01 T02330200  RH  082%=      5-min Rain = 0
KCH1 110602Z 09003KT 23/20 A3009 RMK A01 T02330200  RH  082%=      5-min Rain = 0
KCH1 110603Z 09003KT 23/20 A3009 RMK A01 T02320199  RH  081%=      5-min Rain = 0
KCH1 110604Z 11003KT 23/20 A3009 RMK A01 T02330198  RH  081%=      5-min Rain = 0
KCH1 110605Z 12004KT 23/20 A3009 RMK A01 T02340197  RH  080%=      5-min Rain = 0
KCH1 110606Z 10002KT 24/20 A3009 RMK A01 T02350198  RH  079%=      5-min Rain = 0
KCH1 110607Z 10001KT 24/20 A3009 RMK A01 T02350197  RH  079%=      5-min Rain = 0
KCH1 110608Z 11002KT 24/20 A3009 RMK A01 T02360197  RH  079%=      5-min Rain = 0
KCH1 110609Z 10002KT 24/20 A3009 RMK A01 T02360197  RH  079%=      5-min Rain = 0
KCH1 110610Z 11002KT 24/20 A3009 RMK A01 T02360198  RH  079%=      5-min Rain = 0
KCH1 110611Z 12002KT 24/20 A3009 RMK A01 T02360198  RH  079%=      5-min Rain = 0
KCH1 110612Z 12002KT 24/20 A3009 RMK A01 T02350197  RH  079%=      5-min Rain = 0
KCH1 110613Z 12002KT 24/20 A3009 RMK A01 T02350196  RH  079%=      5-min Rain = 0
KCH1 110614Z 12002KT 24/20 A3009 RMK A01 T02360196  RH  078%=      5-min Rain = 0
KCH1 110615Z 13003KT 24/20 A3009 RMK A01 T02360196  RH  078%=      5-min Rain = 0
KCH1 110616Z 12003KT 24/20 A3009 RMK A01 T02360197  RH  078%=      5-min Rain = 0
KCH1 110617Z 12003KT 24/20 A3009 RMK A01 T02360197  RH  078%=      5-min Rain = 0
KCH1 110618Z 12003KT 24/20 A3009 RMK A01 T02360197  RH  079%=      5-min Rain = 0
KCH1 110619Z 13002KT 24/20 A3009 RMK A01 T02360197  RH  079%=      5-min Rain = 0
KCH1 110620Z 13002KT 24/20 A3009 RMK A01 T02360197  RH  079%=      5-min Rain = 0
KCH1 110621Z 13002KT 24/20 A3009 RMK A01 T02360197  RH  079%=      5-min Rain = 0
KCH1 110622Z 14002KT 24/20 A3009 RMK A01 T02360196  RH  079%=      5-min Rain = 0
KCH1 110623Z 14002KT 24/20 A3009 RMK A01 T02360196  RH  078%=      5-min Rain = 0
KCH1 110624Z 16002KT 24/20 A3009 RMK A01 T02360195  RH  078%=      5-min Rain = 0
KCH1 110625Z 16003KT 24/20 A3009 RMK A01 T02360195  RH  078%=      5-min Rain = 0
KCH1 110626Z 16003KT 24/19 A3009 RMK A01 T02360194  RH  078%=      5-min Rain = 0
KCH1 110627Z 16002KT 24/19 A3009 RMK A01 T02360194  RH  077%=      5-min Rain = 0
KCH1 110628Z 16002KT 24/19 A3009 RMK A01 T02360194  RH  077%=      5-min Rain = 0
KCH1 110629Z 16002KT 24/19 A3009 RMK A01 T02360194  RH  077%=      5-min Rain = 0
KCH1 110630Z 16003KT 24/19 A3009 RMK A01 T02360194  RH  077%=      5-min Rain = 0
KCH1 110631Z 16002KT 24/19 A3009 RMK A01 T02360193  RH  077%=      5-min Rain = 0
KCH1 110632Z 17002KT 24/19 A3009 RMK A01 T02360192  RH  076%=      5-min Rain = 0
KCH1 110633Z 15001KT 24/19 A3009 RMK A01 T02360192  RH  077%=      5-min Rain = 0
KCH1 110634Z 15001KT 24/19 A3009 RMK A01 T02360193  RH  077%=      5-min Rain = 0
KCH1 110635Z 14002KT 24/19 A3009 RMK A01 T02360193  RH  077%=      5-min Rain = 0
KCH1 110636Z 12001KT 24/19 A3009 RMK A01 T02360193  RH  077%=      5-min Rain = 0
KCH1 110637Z 10002KT 24/20 A3009 RMK A01 T02360195  RH  078%=      5-min Rain = 0
KCH1 110638Z 08002KT 24/20 A3009 RMK A01 T02350197  RH  079%=      5-min Rain = 0
KCH1 110639Z 08002KT 23/20 A3009 RMK A01 T02330199  RH  081%=      5-min Rain = 0
KCH1 110640Z 07002KT 23/20 A3009 RMK A01 T02300199  RH  083%=      5-min Rain = 0
KCH1 110641Z 07002KT 23/20 A3009 RMK A01 T02290200  RH  084%=      5-min Rain = 0
KCH1 110642Z 08002KT 23/20 A3009 RMK A01 T02270201  RH  085%=      5-min Rain = 0
KCH1 110643Z 09002KT 23/20 A3009 RMK A01 T02260201  RH  086%=      5-min Rain = 0
KCH1 110644Z 09002KT 23/20 A3009 RMK A01 T02250201  RH  086%=      5-min Rain = 0
KCH1 110645Z 10002KT 22/20 A3009 RMK A01 T02240201  RH  087%=      5-min Rain = 0
KCH1 110646Z 10002KT 22/20 A3009 RMK A01 T02230200  RH  087%=      5-min Rain = 0
KCH1 110647Z 12002KT 22/20 A3009 RMK A01 T02230201  RH  087%=      5-min Rain = 0
KCH1 110648Z 12002KT 22/20 A3009 RMK A01 T02230199  RH  086%=      5-min Rain = 0
KCH1 110649Z 12002KT 22/20 A3009 RMK A01 T02230198  RH  086%=      5-min Rain = 0
KCH1 110650Z 12003KT 22/20 A3009 RMK A01 T02230196  RH  084%=      5-min Rain = 0
KCH1 110651Z 13002KT 22/19 A3009 RMK A01 T02240189  RH  081%=      5-min Rain = 0
KCH1 110652Z 13002KT 23/19 A3009 RMK A01 T02260190  RH  080%=      5-min Rain = 0
KCH1 110653Z 14002KT 23/19 A3009 RMK A01 T02280187  RH  078%=      5-min Rain = 0
KCH1 110654Z 14002KT 23/19 A3009 RMK A01 T02300187  RH  077%=      5-min Rain = 0
KCH1 110655Z 14002KT 23/19 A3009 RMK A01 T02310187  RH  076%=      5-min Rain = 0
KCH1 110656Z 14003KT 23/19 A3009 RMK A01 T02320187  RH  076%=      5-min Rain = 0
KCH1 110657Z 14003KT 23/19 A3009 RMK A01 T02330186  RH  075%=      5-min Rain = 0
KCH1 110658Z 13003KT 23/19 A3009 RMK A01 T02330187  RH  075%=      5-min Rain = 0
KCH1 110659Z 14003KT 23/19 A3009 RMK A01 T02340190  RH  076%=      5-min Rain = 0
KCH1 110700Z 13003KT 23/19 A3009 RMK A01 T02340190  RH  076%=      5-min Rain = 0
KCH1 110701Z 14003KT 23/19 A3009 RMK A01 T02330191  RH  077%=      5-min Rain = 0
KCH1 110702Z 13003KT 23/19 A3009 RMK A01 T02320192  RH  078%=      5-min Rain = 0
KCH1 110703Z 13003KT 23/19 A3009 RMK A01 T02310194  RH  079%=      5-min Rain = 0
KCH1 110704Z 13003KT 23/19 A3009 RMK A01 T02300194  RH  080%=      5-min Rain = 0
KCH1 110705Z 13003KT 23/20 A3009 RMK A01 T02290195  RH  081%=      5-min Rain = 0
KCH1 110706Z 13003KT 23/20 A3009 RMK A01 T02280195  RH  082%=      5-min Rain = 0
KCH1 110707Z 13002KT 23/20 A3009 RMK A01 T02270196  RH  083%=      5-min Rain = 0
KCH1 110708Z 13002KT 23/20 A3009 RMK A01 T02260196  RH  083%=      5-min Rain = 0
KCH1 110709Z 13002KT 23/20 A3009 RMK A01 T02250195  RH  083%=      5-min Rain = 0
KCH1 110710Z 14002KT 23/19 A301 RMK A01 T02250194  RH  083%=      5-min Rain = 0
KCH1 110711Z 14002KT 23/19 A301 RMK A01 T02250192  RH  082%=      5-min Rain = 0
KCH1 110712Z 14002KT 22/19 A301 RMK A01 T02240191  RH  081%=      5-min Rain = 0
KCH1 110713Z 15002KT 23/19 A301 RMK A01 T02250189  RH  080%=      5-min Rain = 0
KCH1 110714Z 15002KT 23/19 A301 RMK A01 T02250189  RH  080%=      5-min Rain = 0
KCH1 110715Z 15002KT 23/19 A301 RMK A01 T02250189  RH  080%=      5-min Rain = 0
KCH1 110716Z 15002KT 23/19 A301 RMK A01 T02250187  RH  079%=      5-min Rain = 0
KCH1 110717Z 15002KT 23/18 A301 RMK A01 T02260183  RH  076%=      5-min Rain = 0
KCH1 110718Z 15002KT 23/18 A301 RMK A01 T02270181  RH  075%=      5-min Rain = 0
KCH1 110719Z 14002KT 23/18 A301 RMK A01 T02280180  RH  074%=      5-min Rain = 0
KCH1 110720Z 14001KT 23/18 A301 RMK A01 T02290179  RH  073%=      5-min Rain = 0
KCH1 110721Z 14002KT 23/18 A301 RMK A01 T02290178  RH  073%=      5-min Rain = 0
KCH1 110722Z 13002KT 23/18 A301 RMK A01 T02300178  RH  073%=      5-min Rain = 0
KCH1 110723Z 13001KT 23/18 A301 RMK A01 T02310178  RH  072%=      5-min Rain = 0
KCH1 110724Z 13001KT 23/18 A301 RMK A01 T02310178  RH  072%=      5-min Rain = 0
KCH1 110725Z 14001KT 23/18 A301 RMK A01 T02320179  RH  072%=      5-min Rain = 0
KCH1 110726Z 13001KT 23/18 A301 RMK A01 T02320180  RH  073%=      5-min Rain = 0
KCH1 110727Z 15001KT 23/18 A301 RMK A01 T02320182  RH  073%=      5-min Rain = 0
KCH1 110728Z 16001KT 23/19 A301 RMK A01 T02320185  RH  075%=      5-min Rain = 0
KCH1 110729Z 17001KT 23/18 A301 RMK A01 T02310184  RH  075%=      5-min Rain = 0
KCH1 110730Z 18001KT 23/18 A301 RMK A01 T02300182  RH  074%=      5-min Rain = 0
KCH1 110731Z 18002KT 23/18 A301 RMK A01 T02300181  RH  074%=      5-min Rain = 0
KCH1 110732Z 18002KT 23/18 A301 RMK A01 T02290183  RH  075%=      5-min Rain = 0
KCH1 110733Z 20002KT 23/19 A301 RMK A01 T02290186  RH  077%=      5-min Rain = 0
KCH1 110734Z 18002KT 23/19 A301 RMK A01 T02290188  RH  078%=      5-min Rain = 0
KCH1 110735Z 18002KT 23/18 A301 RMK A01 T02280184  RH  076%=      5-min Rain = 0
KCH1 110736Z 19001KT 23/18 A301 RMK A01 T02280178  RH  074%=      5-min Rain = 0
KCH1 110737Z 17001KT 23/18 A301 RMK A01 T02280178  RH  074%=      5-min Rain = 0
KCH1 110738Z 17001KT 23/18 A301 RMK A01 T02270177  RH  073%=      5-min Rain = 0
KCH1 110739Z 17001KT 23/18 A301 RMK A01 T02280176  RH  072%=      5-min Rain = 0
KCH1 110740Z 17001KT 23/18 A301 RMK A01 T02290176  RH  072%=      5-min Rain = 0
KCH1 110741Z 16001KT 23/18 A301 RMK A01 T02290176  RH  072%=      5-min Rain = 0
KCH1 110742Z 16001KT 23/18 A301 RMK A01 T02290176  RH  072%=      5-min Rain = 0
KCH1 110743Z 15001KT 23/18 A301 RMK A01 T02300176  RH  072%=      5-min Rain = 0
KCH1 110744Z 14001KT 23/18 A301 RMK A01 T02290177  RH  072%=      5-min Rain = 0
KCH1 110745Z 14001KT 23/18 A301 RMK A01 T02300176  RH  072%=      5-min Rain = 0
KCH1 110746Z 13001KT 23/18 A301 RMK A01 T02300176  RH  072%=      5-min Rain = 0
KCH1 110747Z 13002KT 23/18 A301 RMK A01 T02290176  RH  072%=      5-min Rain = 0
KCH1 110748Z 14002KT 23/18 A301 RMK A01 T02290178  RH  073%=      5-min Rain = 0
KCH1 110749Z 12002KT 23/18 A301 RMK A01 T02280182  RH  075%=      5-min Rain = 0
KCH1 110750Z 13002KT 23/18 A301 RMK A01 T02270182  RH  076%=      5-min Rain = 0
KCH1 110751Z 10002KT 23/19 A301 RMK A01 T02260186  RH  078%=      5-min Rain = 0
KCH1 110752Z 11002KT 22/19 A301 RMK A01 T02240187  RH  079%=      5-min Rain = 0
KCH1 110753Z 11002KT 22/19 A301 RMK A01 T02220185  RH  079%=      5-min Rain = 0
KCH1 110754Z 08002KT 22/19 A301 RMK A01 T02210189  RH  082%=      5-min Rain = 0
KCH1 110755Z 09001KT 22/19 A301 RMK A01 T02210192  RH  084%=      5-min Rain = 0
KCH1 110756Z 09001KT 22/19 A301 RMK A01 T02190186  RH  082%=      5-min Rain = 0
KCH1 110757Z 08001KT 22/19 A301 RMK A01 T02180187  RH  082%=      5-min Rain = 0
KCH1 110758Z 03000KT 22/19 A301 RMK A01 T02180187  RH  082%=      5-min Rain = 0
KCH1 110759Z 07000KT 22/19 A301 RMK A01 T02190186  RH  082%=      5-min Rain = 0
KCH1 110800Z 11000KT 22/19 A301 RMK A01 T02180185  RH  081%=      5-min Rain = 0
KCH1 110801Z 00000KT 22/18 A301 RMK A01 T02190181  RH  079%=      5-min Rain = 0
KCH1 110802Z 00000KT 22/18 A301 RMK A01 T02190178  RH  077%=      5-min Rain = 0
KCH1 110803Z 00000KT 22/18 A301 RMK A01 T02210181  RH  078%=      5-min Rain = 0
KCH1 110804Z 00000KT 22/18 A301 RMK A01 T02210179  RH  077%=      5-min Rain = 0
KCH1 110805Z 10001KT 22/18 A301 RMK A01 T02210176  RH  076%=      5-min Rain = 0
KCH1 110806Z 09001KT 22/18 A301 RMK A01 T02220176  RH  075%=      5-min Rain = 0
KCH1 110807Z 09001KT 22/18 A301 RMK A01 T02230176  RH  074%=      5-min Rain = 0
KCH1 110808Z 09001KT 22/18 A301 RMK A01 T02230175  RH  074%=      5-min Rain = 0
KCH1 110809Z 10002KT 22/18 A301 RMK A01 T02230175  RH  074%=      5-min Rain = 0
KCH1 110810Z 08002KT 22/18 A301 RMK A01 T02240176  RH  074%=      5-min Rain = 0
KCH1 110811Z 06001KT 22/18 A3011 RMK A01 T02240179  RH  076%=      5-min Rain = 0
KCH1 110812Z 06001KT 22/18 A3011 RMK A01 T02230182  RH  078%=      5-min Rain = 0
KCH1 110813Z 06001KT 22/18 A3011 RMK A01 T02220180  RH  077%=      5-min Rain = 0
KCH1 110814Z 06001KT 22/18 A3011 RMK A01 T02210180  RH  077%=      5-min Rain = 0
KCH1 110815Z 06001KT 22/18 A3011 RMK A01 T02210180  RH  078%=      5-min Rain = 0
KCH1 110816Z 08001KT 22/18 A3011 RMK A01 T02210181  RH  078%=      5-min Rain = 0
KCH1 110817Z 10001KT 22/18 A3011 RMK A01 T02200183  RH  079%=      5-min Rain = 0
KCH1 110818Z 10002KT 22/18 A301 RMK A01 T02190182  RH  079%=      5-min Rain = 0
KCH1 110819Z 12002KT 22/18 A301 RMK A01 T02190179  RH  078%=      5-min Rain = 0
KCH1 110820Z 11002KT 22/18 A301 RMK A01 T02190178  RH  077%=      5-min Rain = 0
KCH1 110821Z 11002KT 22/18 A301 RMK A01 T02200182  RH  079%=      5-min Rain = 0
KCH1 110822Z 12001KT 22/18 A301 RMK A01 T02200178  RH  077%=      5-min Rain = 0
KCH1 110823Z 12001KT 22/18 A301 RMK A01 T02200178  RH  077%=      5-min Rain = 0
KCH1 110824Z 13001KT 22/18 A301 RMK A01 T02200175  RH  076%=      5-min Rain = 0
KCH1 110825Z 12001KT 22/17 A301 RMK A01 T02200172  RH  074%=      5-min Rain = 0
KCH1 110826Z 13002KT 22/17 A3011 RMK A01 T02210172  RH  074%=      5-min Rain = 0
KCH1 110827Z 13001KT 22/17 A301 RMK A01 T02220171  RH  073%=      5-min Rain = 0
KCH1 110828Z 13001KT 22/17 A3011 RMK A01 T02230172  RH  073%=      5-min Rain = 0
KCH1 110829Z 14001KT 22/17 A301 RMK A01 T02240174  RH  073%=      5-min Rain = 0
KCH1 110830Z 14001KT 22/17 A301 RMK A01 T02240173  RH  073%=      5-min Rain = 0
KCH1 110831Z 13001KT 22/17 A301 RMK A01 T02240172  RH  072%=      5-min Rain = 0
KCH1 110832Z 13002KT 22/17 A301 RMK A01 T02240172  RH  072%=      5-min Rain = 0
KCH1 110833Z 12002KT 23/17 A301 RMK A01 T02250171  RH  072%=      5-min Rain = 0
KCH1 110834Z 13001KT 23/17 A301 RMK A01 T02250172  RH  072%=      5-min Rain = 0
KCH1 110835Z 12001KT 23/17 A301 RMK A01 T02250173  RH  072%=      5-min Rain = 0
KCH1 110836Z 12001KT 23/17 A301 RMK A01 T02250174  RH  073%=      5-min Rain = 0
KCH1 110837Z 13001KT 22/17 A301 RMK A01 T02240174  RH  073%=      5-min Rain = 0
KCH1 110838Z 13001KT 22/17 A301 RMK A01 T02230174  RH  074%=      5-min Rain = 0
KCH1 110839Z 13001KT 22/17 A301 RMK A01 T02240174  RH  073%=      5-min Rain = 0
KCH1 110840Z 13001KT 22/17 A301 RMK A01 T02230172  RH  073%=      5-min Rain = 0
KCH1 110841Z 12001KT 22/17 A301 RMK A01 T02230172  RH  073%=      5-min Rain = 0
KCH1 110842Z 11001KT 22/17 A301 RMK A01 T02240172  RH  072%=      5-min Rain = 0
KCH1 110843Z 12001KT 22/17 A301 RMK A01 T02240172  RH  072%=      5-min Rain = 0
KCH1 110844Z 13000KT 22/17 A301 RMK A01 T02240172  RH  072%=      5-min Rain = 0
KCH1 110845Z 00000KT 23/17 A3011 RMK A01 T02250173  RH  072%=      5-min Rain = 0
KCH1 110846Z 00000KT 23/17 A3011 RMK A01 T02250172  RH  072%=      5-min Rain = 0
KCH1 110847Z 11001KT 23/17 A3011 RMK A01 T02250171  RH  072%=      5-min Rain = 0
KCH1 110848Z 12001KT 23/17 A3011 RMK A01 T02250172  RH  072%=      5-min Rain = 0
KCH1 110849Z 11001KT 23/17 A3011 RMK A01 T02250171  RH  071%=      5-min Rain = 0
KCH1 110850Z 09001KT 23/17 A3011 RMK A01 T02250171  RH  071%=      5-min Rain = 0
KCH1 110851Z 08001KT 23/18 A3011 RMK A01 T02250175  RH  073%=      5-min Rain = 0
KCH1 110852Z 07002KT 22/18 A3011 RMK A01 T02240177  RH  075%=      5-min Rain = 0
KCH1 110853Z 06002KT 22/18 A3011 RMK A01 T02210181  RH  078%=      5-min Rain = 0
KCH1 110854Z 05002KT 22/18 A3011 RMK A01 T02190180  RH  079%=      5-min Rain = 0
KCH1 110855Z 05002KT 22/18 A3011 RMK A01 T02170182  RH  081%=      5-min Rain = 0
KCH1 110856Z 05002KT 22/18 A3011 RMK A01 T02160181  RH  081%=      5-min Rain = 0
KCH1 110857Z 05002KT 22/18 A3011 RMK A01 T02150180  RH  081%=      5-min Rain = 0
KCH1 110858Z 05002KT 21/18 A3011 RMK A01 T02140179  RH  080%=      5-min Rain = 0
KCH1 110859Z 05003KT 21/18 A3011 RMK A01 T02140178  RH  080%=      5-min Rain = 0
KCH1 110900Z 05003KT 22/18 A3011 RMK A01 T02150179  RH  080%=      5-min Rain = 0
KCH1 110901Z 05003KT 22/18 A3011 RMK A01 T02150178  RH  080%=      5-min Rain = 0
KCH1 110902Z 06003KT 22/18 A3011 RMK A01 T02150178  RH  079%=      5-min Rain = 0
KCH1 110903Z 06003KT 22/18 A3011 RMK A01 T02150178  RH  079%=      5-min Rain = 0
KCH1 110904Z 05003KT 22/18 A3011 RMK A01 T02150178  RH  079%=      5-min Rain = 0
KCH1 110905Z 06003KT 22/18 A3011 RMK A01 T02150177  RH  079%=      5-min Rain = 0
KCH1 110906Z 05003KT 22/18 A3011 RMK A01 T02150177  RH  078%=      5-min Rain = 0
KCH1 110907Z 05003KT 22/18 A3011 RMK A01 T02160178  RH  079%=      5-min Rain = 0
KCH1 110908Z 05003KT 22/18 A301 RMK A01 T02160179  RH  080%=      5-min Rain = 0
KCH1 110909Z 06003KT 22/18 A301 RMK A01 T02160181  RH  081%=      5-min Rain = 0
KCH1 110910Z 07003KT 22/18 A301 RMK A01 T02150182  RH  081%=      5-min Rain = 0
KCH1 110911Z 08003KT 22/18 A301 RMK A01 T02150182  RH  081%=      5-min Rain = 0
KCH1 110912Z 08002KT 21/18 A301 RMK A01 T02140180  RH  081%=      5-min Rain = 0
KCH1 110913Z 09002KT 21/18 A301 RMK A01 T02140180  RH  081%=      5-min Rain = 0
KCH1 110914Z 09003KT 21/18 A301 RMK A01 T02140180  RH  081%=      5-min Rain = 0
KCH1 110915Z 10003KT 21/18 A301 RMK A01 T02140180  RH  081%=      5-min Rain = 0
KCH1 110916Z 10003KT 21/18 A301 RMK A01 T02140180  RH  081%=      5-min Rain = 0
KCH1 110917Z 11003KT 21/18 A301 RMK A01 T02140179  RH  081%=      5-min Rain = 0
KCH1 110918Z 11003KT 21/18 A301 RMK A01 T02140179  RH  080%=      5-min Rain = 0
KCH1 110919Z 11002KT 21/18 A301 RMK A01 T02140179  RH  080%=      5-min Rain = 0
KCH1 110920Z 11002KT 21/18 A301 RMK A01 T02140179  RH  080%=      5-min Rain = 0
KCH1 110921Z 11002KT 21/18 A301 RMK A01 T02140181  RH  081%=      5-min Rain = 0
KCH1 110922Z 12003KT 21/19 A301 RMK A01 T02140186  RH  084%=      5-min Rain = 0
KCH1 110923Z 12002KT 21/18 A301 RMK A01 T02140184  RH  083%=      5-min Rain = 0
KCH1 110924Z 12002KT 21/18 A301 RMK A01 T02130180  RH  081%=      5-min Rain = 0
KCH1 110925Z 12002KT 21/18 A301 RMK A01 T02130179  RH  081%=      5-min Rain = 0
KCH1 110926Z 12002KT 21/18 A301 RMK A01 T02140178  RH  080%=      5-min Rain = 0
KCH1 110927Z 12002KT 21/18 A301 RMK A01 T02130179  RH  081%=      5-min Rain = 0
KCH1 110928Z 11002KT 21/18 A301 RMK A01 T02140179  RH  080%=      5-min Rain = 0
KCH1 110929Z 12002KT 21/18 A301 RMK A01 T02140179  RH  080%=      5-min Rain = 0
KCH1 110930Z 12002KT 21/18 A301 RMK A01 T02140180  RH  081%=      5-min Rain = 0
KCH1 110931Z 11002KT 21/18 A301 RMK A01 T02140180  RH  081%=      5-min Rain = 0
KCH1 110932Z 11002KT 21/18 A301 RMK A01 T02140181  RH  081%=      5-min Rain = 0
KCH1 110933Z 11002KT 21/18 A301 RMK A01 T02140180  RH  081%=      5-min Rain = 0
KCH1 110934Z 10002KT 21/18 A301 RMK A01 T02140181  RH  081%=      5-min Rain = 0
KCH1 110935Z 10002KT 21/18 A301 RMK A01 T02140181  RH  082%=      5-min Rain = 0
KCH1 110936Z 10002KT 21/18 A301 RMK A01 T02130182  RH  082%=      5-min Rain = 0
KCH1 110937Z 10002KT 21/18 A301 RMK A01 T02130183  RH  083%=      5-min Rain = 0
KCH1 110938Z 08001KT 21/18 A301 RMK A01 T02120183  RH  084%=      5-min Rain = 0
KCH1 110939Z 07001KT 21/19 A301 RMK A01 T02120185  RH  085%=      5-min Rain = 0
KCH1 110940Z 07001KT 21/19 A301 RMK A01 T02110185  RH  085%=      5-min Rain = 0
KCH1 110941Z 07002KT 21/18 A301 RMK A01 T02100184  RH  085%=      5-min Rain = 0
KCH1 110942Z 06002KT 21/18 A301 RMK A01 T02100183  RH  085%=      5-min Rain = 0
KCH1 110943Z 06002KT 21/18 A301 RMK A01 T02100182  RH  084%=      5-min Rain = 0
KCH1 110944Z 05002KT 21/18 A301 RMK A01 T02100182  RH  084%=      5-min Rain = 0
KCH1 110945Z 05003KT 21/18 A301 RMK A01 T02100182  RH  084%=      5-min Rain = 0
KCH1 110946Z 05003KT 21/18 A301 RMK A01 T02100182  RH  084%=      5-min Rain = 0
KCH1 110947Z 06003KT 21/18 A301 RMK A01 T02090182  RH  084%=      5-min Rain = 0
KCH1 110948Z 06003KT 21/18 A301 RMK A01 T02090182  RH  084%=      5-min Rain = 0
KCH1 110949Z 05004KT 21/18 A301 RMK A01 T02090183  RH  085%=      5-min Rain = 0
KCH1 110950Z 05004KT 21/18 A301 RMK A01 T02080183  RH  085%=      5-min Rain = 0
KCH1 110951Z 05004KT 21/18 A301 RMK A01 T02080183  RH  086%=      5-min Rain = 0
KCH1 110952Z 05004KT 21/18 A301 RMK A01 T02070184  RH  086%=      5-min Rain = 0
KCH1 110953Z 05004KT 21/18 A301 RMK A01 T02070184  RH  087%=      5-min Rain = 0
KCH1 110954Z 05004KT 21/18 A301 RMK A01 T02060184  RH  087%=      5-min Rain = 0
KCH1 110955Z 05004KT 21/18 A301 RMK A01 T02060184  RH  087%=      5-min Rain = 0
KCH1 110956Z 05004KT 21/18 A301 RMK A01 T02060183  RH  087%=      5-min Rain = 0
KCH1 110957Z 05004KT 21/18 A301 RMK A01 T02050183  RH  087%=      5-min Rain = 0
KCH1 110958Z 05004KT 21/18 A301 RMK A01 T02060182  RH  086%=      5-min Rain = 0
KCH1 110959Z 05004KT 21/18 A301 RMK A01 T02060182  RH  086%=      5-min Rain = 0
KCH1 111000Z 05004KT 21/18 A301 RMK A01 T02060181  RH  086%=      5-min Rain = 0
KCH1 111001Z 05004KT 21/18 A301 RMK A01 T02060182  RH  086%=      5-min Rain = 0
KCH1 111002Z 05004KT 21/18 A301 RMK A01 T02060182  RH  086%=      5-min Rain = 0
KCH1 111003Z 05004KT 21/18 A301 RMK A01 T02060182  RH  086%=      5-min Rain = 0
KCH1 111004Z 05004KT 21/18 A301 RMK A01 T02060180  RH  085%=      5-min Rain = 0
KCH1 111005Z 05004KT 21/18 A301 RMK A01 T02070179  RH  084%=      5-min Rain = 0
KCH1 111006Z 06003KT 21/18 A301 RMK A01 T02080179  RH  083%=      5-min Rain = 0
KCH1 111007Z 06003KT 21/18 A301 RMK A01 T02090179  RH  083%=      5-min Rain = 0
KCH1 111008Z 06003KT 21/18 A301 RMK A01 T02100179  RH  083%=      5-min Rain = 0
KCH1 111009Z 07003KT 21/18 A301 RMK A01 T02100179  RH  082%=      5-min Rain = 0
KCH1 111010Z 07003KT 21/18 A301 RMK A01 T02110179  RH  082%=      5-min Rain = 0
KCH1 111011Z 08003KT 21/18 A301 RMK A01 T02110179  RH  082%=      5-min Rain = 0
KCH1 111012Z 08003KT 21/18 A301 RMK A01 T02110179  RH  082%=      5-min Rain = 0
KCH1 111013Z 08003KT 21/18 A301 RMK A01 T02110180  RH  082%=      5-min Rain = 0
KCH1 111014Z 08003KT 21/18 A301 RMK A01 T02110180  RH  083%=      5-min Rain = 0
KCH1 111015Z 08003KT 21/18 A301 RMK A01 T02110180  RH  083%=      5-min Rain = 0
KCH1 111016Z 08003KT 21/18 A301 RMK A01 T02100180  RH  083%=      5-min Rain = 0
KCH1 111017Z 08003KT 21/18 A301 RMK A01 T02100181  RH  083%=      5-min Rain = 0
KCH1 111018Z 08002KT 21/18 A301 RMK A01 T02100181  RH  084%=      5-min Rain = 0
KCH1 111019Z 08002KT 21/18 A301 RMK A01 T02100181  RH  084%=      5-min Rain = 0
KCH1 111020Z 08002KT 21/18 A301 RMK A01 T02100181  RH  084%=      5-min Rain = 0
KCH1 111021Z 07002KT 21/18 A301 RMK A01 T02090181  RH  084%=      5-min Rain = 0
KCH1 111022Z 07002KT 21/18 A301 RMK A01 T02090179  RH  083%=      5-min Rain = 0
KCH1 111023Z 07002KT 21/18 A301 RMK A01 T02090180  RH  083%=      5-min Rain = 0
KCH1 111024Z 07002KT 21/18 A301 RMK A01 T02080179  RH  083%=      5-min Rain = 0
KCH1 111025Z 07002KT 21/18 A301 RMK A01 T02090180  RH  083%=      5-min Rain = 0
KCH1 111026Z 06002KT 21/18 A301 RMK A01 T02080180  RH  083%=      5-min Rain = 0
KCH1 111027Z 06002KT 21/18 A301 RMK A01 T02080180  RH  084%=      5-min Rain = 0
KCH1 111028Z 05002KT 21/18 A301 RMK A01 T02080180  RH  084%=      5-min Rain = 0
KCH1 111029Z 05002KT 21/18 A301 RMK A01 T02080180  RH  084%=      5-min Rain = 0
KCH1 111030Z 06002KT 21/18 A301 RMK A01 T02080179  RH  084%=      5-min Rain = 0
KCH1 111031Z 06002KT 21/18 A301 RMK A01 T02070179  RH  084%=      5-min Rain = 0
KCH1 111032Z 06002KT 21/18 A301 RMK A01 T02070179  RH  084%=      5-min Rain = 0
KCH1 111033Z 06002KT 21/18 A301 RMK A01 T02070179  RH  084%=      5-min Rain = 0
KCH1 111034Z 06002KT 21/18 A301 RMK A01 T02070179  RH  084%=      5-min Rain = 0
KCH1 111035Z 06002KT 21/18 A301 RMK A01 T02080179  RH  084%=      5-min Rain = 0
KCH1 111036Z 07001KT 21/18 A301 RMK A01 T02070179  RH  084%=      5-min Rain = 0
KCH1 111037Z 08002KT 21/18 A301 RMK A01 T02070179  RH  084%=      5-min Rain = 0
KCH1 111038Z 08002KT 21/18 A301 RMK A01 T02070179  RH  084%=      5-min Rain = 0
KCH1 111039Z 09002KT 21/18 A301 RMK A01 T02080179  RH  084%=      5-min Rain = 0
KCH1 111040Z 09001KT 21/18 A301 RMK A01 T02070179  RH  084%=      5-min Rain = 0
KCH1 111041Z 09001KT 21/18 A301 RMK A01 T02070179  RH  084%=      5-min Rain = 0
KCH1 111042Z 09001KT 21/18 A301 RMK A01 T02080180  RH  084%=      5-min Rain = 0
KCH1 111043Z 10000KT 21/18 A301 RMK A01 T02080180  RH  084%=      5-min Rain = 0
KCH1 111044Z 06000KT 21/18 A301 RMK A01 T02080181  RH  085%=      5-min Rain = 0
KCH1 111045Z 06001KT 21/18 A301 RMK A01 T02070181  RH  085%=      5-min Rain = 0
KCH1 111046Z 07001KT 21/18 A301 RMK A01 T02080180  RH  084%=      5-min Rain = 0
KCH1 111047Z 07001KT 21/18 A301 RMK A01 T02070179  RH  084%=      5-min Rain = 0
KCH1 111048Z 07002KT 21/18 A301 RMK A01 T02070179  RH  084%=      5-min Rain = 0
KCH1 111049Z 06002KT 21/18 A301 RMK A01 T02080179  RH  083%=      5-min Rain = 0
KCH1 111050Z 06003KT 21/18 A301 RMK A01 T02090179  RH  083%=      5-min Rain = 0
KCH1 111051Z 06003KT 21/18 A301 RMK A01 T02090179  RH  083%=      5-min Rain = 0
KCH1 111052Z 06003KT 21/18 A301 RMK A01 T02090180  RH  083%=      5-min Rain = 0
KCH1 111053Z 06003KT 21/18 A301 RMK A01 T02090180  RH  083%=      5-min Rain = 0
KCH1 111054Z 06002KT 21/18 A301 RMK A01 T02090180  RH  084%=      5-min Rain = 0
KCH1 111055Z 06002KT 21/18 A301 RMK A01 T02080180  RH  084%=      5-min Rain = 0
KCH1 111056Z 06003KT 21/18 A301 RMK A01 T02070181  RH  085%=      5-min Rain = 0
KCH1 111057Z 07003KT 21/18 A301 RMK A01 T02070182  RH  086%=      5-min Rain = 0
KCH1 111058Z 07002KT 21/18 A301 RMK A01 T02050182  RH  087%=      5-min Rain = 0
KCH1 111059Z 07003KT 21/18 A301 RMK A01 T02050183  RH  087%=      5-min Rain = 0
KCH1 111100Z 07003KT 20/18 A301 RMK A01 T02040184  RH  088%=      5-min Rain = 0
KCH1 111101Z 07003KT 20/19 A301 RMK A01 T02040185  RH  089%=      5-min Rain = 0
KCH1 111102Z 07003KT 20/19 A301 RMK A01 T02030185  RH  089%=      5-min Rain = 0
KCH1 111103Z 07003KT 20/19 A301 RMK A01 T02020185  RH  090%=      5-min Rain = 0
KCH1 111104Z 07003KT 20/19 A301 RMK A01 T02020185  RH  090%=      5-min Rain = 0
KCH1 111105Z 07003KT 20/19 A3011 RMK A01 T02010185  RH  091%=      5-min Rain = 0
KCH1 111106Z 06003KT 20/18 A3011 RMK A01 T02010184  RH  090%=      5-min Rain = 0
KCH1 111107Z 07003KT 20/18 A3011 RMK A01 T02000183  RH  090%=      5-min Rain = 0
KCH1 111108Z 07003KT 20/18 A3011 RMK A01 T02010183  RH  090%=      5-min Rain = 0
KCH1 111109Z 07002KT 20/18 A3011 RMK A01 T02010183  RH  089%=      5-min Rain = 0
KCH1 111110Z 07003KT 20/18 A3011 RMK A01 T02010182  RH  089%=      5-min Rain = 0
KCH1 111111Z 08003KT 20/18 A3011 RMK A01 T02020182  RH  088%=      5-min Rain = 0
KCH1 111112Z 09003KT 20/18 A3011 RMK A01 T02020182  RH  088%=      5-min Rain = 0
KCH1 111113Z 08003KT 20/18 A3011 RMK A01 T02030183  RH  088%=      5-min Rain = 0
KCH1 111114Z 09003KT 20/18 A3011 RMK A01 T02020181  RH  088%=      5-min Rain = 0
KCH1 111115Z 10003KT 20/18 A3011 RMK A01 T02030180  RH  087%=      5-min Rain = 0
KCH1 111116Z 10003KT 20/18 A3011 RMK A01 T02030180  RH  087%=      5-min Rain = 0
KCH1 111117Z 10003KT 20/18 A3011 RMK A01 T02030180  RH  086%=      5-min Rain = 0
KCH1 111118Z 11003KT 20/18 A3011 RMK A01 T02040179  RH  086%=      5-min Rain = 0
KCH1 111119Z 11003KT 20/18 A3011 RMK A01 T02040179  RH  085%=      5-min Rain = 0
KCH1 111120Z 11003KT 20/18 A3011 RMK A01 T02040179  RH  085%=      5-min Rain = 0
KCH1 111121Z 11003KT 20/18 A3011 RMK A01 T02040179  RH  085%=      5-min Rain = 0
KCH1 111122Z 10002KT 21/18 A3011 RMK A01 T02050180  RH  086%=      5-min Rain = 0
KCH1 111123Z 10002KT 21/18 A3011 RMK A01 T02050180  RH  086%=      5-min Rain = 0
KCH1 111124Z 09002KT 21/18 A3011 RMK A01 T02050181  RH  086%=      5-min Rain = 0
KCH1 111125Z 08002KT 20/18 A3011 RMK A01 T02040180  RH  086%=      5-min Rain = 0
KCH1 111126Z 07002KT 20/18 A3011 RMK A01 T02040180  RH  086%=      5-min Rain = 0
KCH1 111127Z 07003KT 20/18 A3011 RMK A01 T02040180  RH  086%=      5-min Rain = 0
KCH1 111128Z 07003KT 20/18 A3011 RMK A01 T02030181  RH  087%=      5-min Rain = 0
KCH1 111129Z 07003KT 20/18 A3011 RMK A01 T02030181  RH  087%=      5-min Rain = 0
KCH1 111130Z 06003KT 20/18 A3011 RMK A01 T02030182  RH  088%=      5-min Rain = 0
KCH1 111131Z 06003KT 20/18 A3011 RMK A01 T02020182  RH  088%=      5-min Rain = 0
KCH1 111132Z 05003KT 20/18 A3011 RMK A01 T02020182  RH  088%=      5-min Rain = 0
KCH1 111133Z 05002KT 20/18 A3011 RMK A01 T02020182  RH  089%=      5-min Rain = 0
KCH1 111134Z 04002KT 20/18 A3011 RMK A01 T02020183  RH  089%=      5-min Rain = 0
KCH1 111135Z 04002KT 20/18 A3011 RMK A01 T02020184  RH  089%=      5-min Rain = 0
KCH1 111136Z 05002KT 20/18 A3011 RMK A01 T02010184  RH  090%=      5-min Rain = 0
KCH1 111137Z 05003KT 20/18 A3011 RMK A01 T02000183  RH  090%=      5-min Rain = 0
KCH1 111138Z 06002KT 20/18 A3011 RMK A01 T02000182  RH  089%=      5-min Rain = 0
KCH1 111139Z 06002KT 20/18 A3011 RMK A01 T02000182  RH  089%=      5-min Rain = 0
KCH1 111140Z 07002KT 20/18 A3011 RMK A01 T02000182  RH  089%=      5-min Rain = 0
KCH1 111141Z 06002KT 20/18 A3011 RMK A01 T02000182  RH  089%=      5-min Rain = 0
KCH1 111142Z 07002KT 20/18 A3011 RMK A01 T02000181  RH  089%=      5-min Rain = 0
KCH1 111143Z 08002KT 20/18 A3011 RMK A01 T02010182  RH  089%=      5-min Rain = 0
KCH1 111144Z 08002KT 20/18 A3011 RMK A01 T02000181  RH  089%=      5-min Rain = 0
KCH1 111145Z 08002KT 20/18 A3011 RMK A01 T02010181  RH  089%=      5-min Rain = 0
KCH1 111146Z 09002KT 20/18 A3011 RMK A01 T02010181  RH  088%=      5-min Rain = 0
KCH1 111147Z 09001KT 20/18 A3011 RMK A01 T02010181  RH  088%=      5-min Rain = 0
KCH1 111148Z 10001KT 20/18 A3011 RMK A01 T02010181  RH  088%=      5-min Rain = 0
KCH1 111149Z 10001KT 20/18 A3011 RMK A01 T02010180  RH  088%=      5-min Rain = 0
KCH1 111150Z 08001KT 20/18 A3011 RMK A01 T02010181  RH  088%=      5-min Rain = 0
KCH1 111151Z 08001KT 20/18 A3011 RMK A01 T02020183  RH  089%=      5-min Rain = 0
KCH1 111152Z 08000KT 20/18 A3011 RMK A01 T02020183  RH  089%=      5-min Rain = 0
KCH1 111153Z 00000KT 20/18 A3011 RMK A01 T02020182  RH  088%=      5-min Rain = 0
KCH1 111154Z 00000KT 20/18 A3011 RMK A01 T02020182  RH  088%=      5-min Rain = 0
KCH1 111155Z 00000KT 20/18 A3011 RMK A01 T02020181  RH  088%=      5-min Rain = 0
KCH1 111156Z 00000KT 20/18 A3011 RMK A01 T02030182  RH  088%=      5-min Rain = 0
KCH1 111157Z 00000KT 20/18 A3011 RMK A01 T02030182  RH  088%=      5-min Rain = 0
KCH1 111158Z 01000KT 20/18 A3011 RMK A01 T02030181  RH  087%=      5-min Rain = 0
KCH1 111159Z 36001KT 20/18 A3012 RMK A01 T02030181  RH  087%=      5-min Rain = 0
KCH1 111200Z 33001KT 20/18 A3012 RMK A01 T02040182  RH  087%=      5-min Rain = 0
KCH1 111201Z 32001KT 20/18 A3012 RMK A01 T02040182  RH  087%=      5-min Rain = 0
KCH1 111202Z 33001KT 20/18 A3012 RMK A01 T02040183  RH  088%=      5-min Rain = 0
KCH1 111203Z 32001KT 20/18 A3012 RMK A01 T02040183  RH  087%=      5-min Rain = 0
KCH1 111204Z 33001KT 20/18 A3012 RMK A01 T02040183  RH  088%=      5-min Rain = 0
KCH1 111205Z 32001KT 20/18 A3012 RMK A01 T02040183  RH  088%=      5-min Rain = 0
KCH1 111206Z 26002KT 20/18 A3012 RMK A01 T02040183  RH  087%=      5-min Rain = 0
KCH1 111207Z 26001KT 21/18 A3012 RMK A01 T02050183  RH  087%=      5-min Rain = 0
KCH1 111208Z 16000KT 21/19 A3012 RMK A01 T02050185  RH  088%=      5-min Rain = 0
KCH1 111209Z 00000KT 21/18 A3012 RMK A01 T02050184  RH  088%=      5-min Rain = 0
KCH1 111210Z 26000KT 20/18 A3012 RMK A01 T02040184  RH  088%=      5-min Rain = 0
KCH1 111211Z 25001KT 20/18 A3012 RMK A01 T02040184  RH  088%=      5-min Rain = 0
KCH1 111212Z 22000KT 20/18 A3012 RMK A01 T02040184  RH  088%=      5-min Rain = 0
KCH1 111213Z 00000KT 20/19 A3012 RMK A01 T02040185  RH  089%=      5-min Rain = 0
KCH1 111214Z 00000KT 21/18 A3012 RMK A01 T02050183  RH  087%=      5-min Rain = 0
KCH1 111215Z 18000KT 21/18 A3012 RMK A01 T02050180  RH  086%=      5-min Rain = 0
KCH1 111216Z 18000KT 21/18 A3012 RMK A01 T02060179  RH  084%=      5-min Rain = 0
KCH1 111217Z 00000KT 21/18 A3012 RMK A01 T02070178  RH  083%=      5-min Rain = 0
KCH1 111218Z 00000KT 21/18 A3012 RMK A01 T02100179  RH  083%=      5-min Rain = 0
KCH1 111219Z 00000KT 21/18 A3012 RMK A01 T02110181  RH  083%=      5-min Rain = 0
KCH1 111220Z 00000KT 21/19 A3012 RMK A01 T02120185  RH  084%=      5-min Rain = 0
KCH1 111221Z 00000KT 21/19 A3012 RMK A01 T02120186  RH  085%=      5-min Rain = 0
KCH1 111222Z 00000KT 21/18 A3012 RMK A01 T02120184  RH  084%=      5-min Rain = 0
KCH1 111223Z 00000KT 21/18 A3012 RMK A01 T02120184  RH  084%=      5-min Rain = 0
KCH1 111224Z 00000KT 21/19 A3012 RMK A01 T02130185  RH  084%=      5-min Rain = 0
KCH1 111225Z 00000KT 21/19 A3012 RMK A01 T02140187  RH  085%=      5-min Rain = 0
KCH1 111226Z 00000KT 21/18 A3012 RMK A01 T02140184  RH  083%=      5-min Rain = 0
KCH1 111227Z 00000KT 21/18 A3012 RMK A01 T02140184  RH  083%=      5-min Rain = 0
KCH1 111228Z 00000KT 22/18 A3012 RMK A01 T02150182  RH  081%=      5-min Rain = 0
KCH1 111229Z 00000KT 22/18 A3012 RMK A01 T02160181  RH  080%=      5-min Rain = 0
KCH1 111230Z 00000KT 22/18 A3012 RMK A01 T02180182  RH  080%=      5-min Rain = 0
KCH1 111231Z 00000KT 22/18 A3012 RMK A01 T02190184  RH  080%=      5-min Rain = 0
KCH1 111232Z 00000KT 22/18 A3012 RMK A01 T02200184  RH  080%=      5-min Rain = 0
KCH1 111233Z 00000KT 22/19 A3012 RMK A01 T02210187  RH  081%=      5-min Rain = 0
KCH1 111234Z 03000KT 22/19 A3012 RMK A01 T02210185  RH  080%=      5-min Rain = 0
KCH1 111235Z 00000KT 22/19 A3012 RMK A01 T02220185  RH  080%=      5-min Rain = 0
KCH1 111236Z 00000KT 22/19 A3012 RMK A01 T02220185  RH  079%=      5-min Rain = 0
KCH1 111237Z 00000KT 22/18 A3012 RMK A01 T02220184  RH  079%=      5-min Rain = 0
KCH1 111238Z 05000KT 22/19 A3012 RMK A01 T02240192  RH  082%=      5-min Rain = 0
KCH1 111239Z 04001KT 23/20 A3012 RMK A01 T02250195  RH  083%=      5-min Rain = 0
KCH1 111240Z 05001KT 23/19 A3012 RMK A01 T02250194  RH  083%=      5-min Rain = 0
KCH1 111241Z 05001KT 23/19 A3012 RMK A01 T02250190  RH  081%=      5-min Rain = 0
KCH1 111242Z 05001KT 22/19 A3012 RMK A01 T02240189  RH  080%=      5-min Rain = 0
KCH1 111243Z 05002KT 22/19 A3012 RMK A01 T02240188  RH  080%=      5-min Rain = 0
KCH1 111244Z 05002KT 23/19 A3012 RMK A01 T02250190  RH  081%=      5-min Rain = 0
KCH1 111245Z 05002KT 22/19 A3012 RMK A01 T02240194  RH  083%=      5-min Rain = 0
KCH1 111246Z 05002KT 23/19 A3012 RMK A01 T02250194  RH  083%=      5-min Rain = 0
KCH1 111247Z 06002KT 22/19 A3012 RMK A01 T02240193  RH  083%=      5-min Rain = 0
KCH1 111248Z 06002KT 23/19 A3012 RMK A01 T02250193  RH  082%=      5-min Rain = 0
KCH1 111249Z 06002KT 22/19 A3013 RMK A01 T02240192  RH  082%=      5-min Rain = 0
KCH1 111250Z 07002KT 23/19 A3013 RMK A01 T02250193  RH  082%=      5-min Rain = 0
KCH1 111251Z 07002KT 23/19 A3013 RMK A01 T02260192  RH  081%=      5-min Rain = 0
KCH1 111252Z 07002KT 23/19 A3013 RMK A01 T02270190  RH  080%=      5-min Rain = 0
KCH1 111253Z 09001KT 23/19 A3013 RMK A01 T02270194  RH  081%=      5-min Rain = 0
KCH1 111254Z 09002KT 23/19 A3013 RMK A01 T02280193  RH  081%=      5-min Rain = 0
KCH1 111255Z 09001KT 23/19 A3013 RMK A01 T02290194  RH  081%=      5-min Rain = 0
KCH1 111256Z 10001KT 23/20 A3013 RMK A01 T02300195  RH  080%=      5-min Rain = 0
KCH1 111257Z 09001KT 23/19 A3013 RMK A01 T02310193  RH  079%=      5-min Rain = 0
KCH1 111258Z 10002KT 23/19 A3013 RMK A01 T02310189  RH  077%=      5-min Rain = 0
KCH1 111259Z 10001KT 23/19 A3013 RMK A01 T02310191  RH  078%=      5-min Rain = 0
KCH1 111300Z 08001KT 23/19 A3013 RMK A01 T02330193  RH  078%=      5-min Rain = 0
KCH1 111301Z 09001KT 23/19 A3013 RMK A01 T02340194  RH  078%=      5-min Rain = 0
KCH1 111302Z 09002KT 24/19 A3013 RMK A01 T02350192  RH  077%=      5-min Rain = 0
KCH1 111303Z 09002KT 24/19 A3013 RMK A01 T02350190  RH  076%=      5-min Rain = 0
KCH1 111304Z 09001KT 24/19 A3013 RMK A01 T02360193  RH  077%=      5-min Rain = 0
KCH1 111305Z 10001KT 24/19 A3013 RMK A01 T02370193  RH  076%=      5-min Rain = 0
KCH1 111306Z 08001KT 24/19 A3013 RMK A01 T02380190  RH  075%=      5-min Rain = 0
KCH1 111307Z 09001KT 24/19 A3013 RMK A01 T02380192  RH  075%=      5-min Rain = 0
KCH1 111308Z 09001KT 24/19 A3013 RMK A01 T02390194  RH  076%=      5-min Rain = 0
KCH1 111309Z 09001KT 24/19 A3013 RMK A01 T02400192  RH  074%=      5-min Rain = 0
KCH1 111310Z 08001KT 24/19 A3013 RMK A01 T02400191  RH  074%=      5-min Rain = 0
KCH1 111311Z 10001KT 24/19 A3013 RMK A01 T02410191  RH  074%=      5-min Rain = 0
KCH1 111312Z 12002KT 24/19 A3013 RMK A01 T02420193  RH  074%=      5-min Rain = 0
KCH1 111313Z 13001KT 24/19 A3013 RMK A01 T02420187  RH  071%=      5-min Rain = 0
KCH1 111314Z 12002KT 24/19 A3013 RMK A01 T02420188  RH  072%=      5-min Rain = 0
KCH1 111315Z 15002KT 24/19 A3013 RMK A01 T02420193  RH  074%=      5-min Rain = 0
KCH1 111316Z 14002KT 24/19 A3013 RMK A01 T02430192  RH  073%=      5-min Rain = 0
KCH1 111317Z 14002KT 24/19 A3013 RMK A01 T02440190  RH  072%=      5-min Rain = 0
KCH1 111318Z 15002KT 24/19 A3013 RMK A01 T02440188  RH  071%=      5-min Rain = 0
KCH1 111319Z 14002KT 24/19 A3013 RMK A01 T02440193  RH  073%=      5-min Rain = 0
KCH1 111320Z 15003KT 24/19 A3013 RMK A01 T02440193  RH  073%=      5-min Rain = 0
KCH1 111321Z 15003KT 25/19 A3013 RMK A01 T02450190  RH  071%=      5-min Rain = 0
KCH1 111322Z 16002KT 25/19 A3013 RMK A01 T02450190  RH  072%=      5-min Rain = 0
KCH1 111323Z 15003KT 25/19 A3013 RMK A01 T02450189  RH  071%=      5-min Rain = 0
KCH1 111324Z 15003KT 25/19 A3013 RMK A01 T02450188  RH  071%=      5-min Rain = 0
KCH1 111325Z 15002KT 25/19 A3013 RMK A01 T02450191  RH  072%=      5-min Rain = 0
KCH1 111326Z 15003KT 25/19 A3013 RMK A01 T02450189  RH  071%=      5-min Rain = 0
KCH1 111327Z 14003KT 25/19 A3013 RMK A01 T02450190  RH  071%=      5-min Rain = 0
KCH1 111328Z 14003KT 25/19 A3013 RMK A01 T02460191  RH  072%=      5-min Rain = 0
KCH1 111329Z 15003KT 25/19 A3013 RMK A01 T02460193  RH  072%=      5-min Rain = 0
KCH1 111330Z 15003KT 25/19 A3013 RMK A01 T02470194  RH  072%=      5-min Rain = 0
KCH1 111331Z 15003KT 25/20 A3013 RMK A01 T02470196  RH  073%=      5-min Rain = 0
KCH1 111332Z 15003KT 25/19 A3013 RMK A01 T02480194  RH  072%=      5-min Rain = 0
KCH1 111333Z 14004KT 25/19 A3013 RMK A01 T02480193  RH  071%=      5-min Rain = 0
KCH1 111334Z 15005KT 25/19 A3013 RMK A01 T02480193  RH  071%=      5-min Rain = 0
KCH1 111335Z 14004KT 25/19 A3013 RMK A01 T02480192  RH  071%=      5-min Rain = 0
KCH1 111336Z 16003KT 25/19 A3013 RMK A01 T02470193  RH  072%=      5-min Rain = 0
KCH1 111337Z 17004KT 25/19 A3013 RMK A01 T02470194  RH  072%=      5-min Rain = 0
KCH1 111338Z 17003KT 25/19 A3013 RMK A01 T02460192  RH  072%=      5-min Rain = 0
KCH1 111339Z 17003KT 25/19 A3013 RMK A01 T02460194  RH  073%=      5-min Rain = 0
KCH1 111340Z 16004KT 25/19 A3013 RMK A01 T02460192  RH  072%=      5-min Rain = 0
KCH1 111341Z 16004KT 25/19 A3014 RMK A01 T02460192  RH  071%=      5-min Rain = 0
KCH1 111342Z 16003KT 25/19 A3014 RMK A01 T02460193  RH  072%=      5-min Rain = 0
KCH1 111343Z 16002KT 25/20 A3014 RMK A01 T02470196  RH  073%=      5-min Rain = 0
KCH1 111344Z 16003KT 25/20 A3014 RMK A01 T02490198  RH  073%=      5-min Rain = 0
KCH1 111345Z 16004KT 25/20 A3014 RMK A01 T02500195  RH  071%=      5-min Rain = 0
KCH1 111346Z 16003KT 25/20 A3014 RMK A01 T02500196  RH  072%=      5-min Rain = 0
KCH1 111347Z 15003KT 25/20 A3014 RMK A01 T02510195  RH  071%=      5-min Rain = 0
KCH1 111348Z 15002KT 25/20 A3014 RMK A01 T02510195  RH  071%=      5-min Rain = 0
KCH1 111349Z 18002KT 25/20 A3014 RMK A01 T02510196  RH  071%=      5-min Rain = 0
KCH1 111350Z 16004KT 25/20 A3014 RMK A01 T02510195  RH  071%=      5-min Rain = 0
KCH1 111351Z 17003KT 25/19 A3014 RMK A01 T02510194  RH  071%=      5-min Rain = 0
KCH1 111352Z 16003KT 25/20 A3014 RMK A01 T02500197  RH  072%=      5-min Rain = 0
KCH1 111353Z 16004KT 25/20 A3014 RMK A01 T02500196  RH  072%=      5-min Rain = 0
KCH1 111354Z 16003KT 25/20 A3014 RMK A01 T02500197  RH  072%=      5-min Rain = 0
KCH1 111355Z 18002KT 25/20 A3014 RMK A01 T02510197  RH  072%=      5-min Rain = 0
KCH1 111356Z 20002KT 25/20 A3014 RMK A01 T02510196  RH  071%=      5-min Rain = 0
KCH1 111357Z 16001KT 25/20 A3014 RMK A01 T02520199  RH  073%=      5-min Rain = 0
KCH1 111358Z 18002KT 25/20 A3014 RMK A01 T02530199  RH  072%=      5-min Rain = 0
KCH1 111359Z 19004KT 25/20 A3014 RMK A01 T02540198  RH  071%=      5-min Rain = 0
KCH1 111400Z 19004KT 25/20 A3014 RMK A01 T02540198  RH  071%=      5-min Rain = 0
KCH1 111401Z 19005KT 25/20 A3014 RMK A01 T02530199  RH  072%=      5-min Rain = 0
KCH1 111402Z 21003KT 25/20 A3014 RMK A01 T02530200  RH  072%=      5-min Rain = 0
KCH1 111403Z 20005KT 25/20 A3014 RMK A01 T02540201  RH  072%=      5-min Rain = 0
KCH1 111404Z 21006KT 26/20 A3014 RMK A01 T02560200  RH  071%=      5-min Rain = 0
KCH1 111405Z 22003G8KT 26/20 A3014 RMK A01 T02570200  RH  071%=      5-min Rain = 0
KCH1 111406Z 24007KT 26/20 A3014 RMK A01 T02580200  RH  071%=      5-min Rain = 0
KCH1 111407Z 22004KT 26/20 A3014 RMK A01 T02580202  RH  071%=      5-min Rain = 0
KCH1 111408Z 23005KT 26/20 A3014 RMK A01 T02590202  RH  071%=      5-min Rain = 0
KCH1 111409Z 21008KT 26/20 A3014 RMK A01 T02600201  RH  070%=      5-min Rain = 0
KCH1 111410Z 20005KT 26/20 A3014 RMK A01 T02600200  RH  070%=      5-min Rain = 0
KCH1 111411Z 20007KT 26/20 A3014 RMK A01 T02600200  RH  070%=      5-min Rain = 0
KCH1 111412Z 22009KT 26/20 A3014 RMK A01 T02600199  RH  069%=      5-min Rain = 0
KCH1 111413Z 22008KT 26/20 A3014 RMK A01 T02590199  RH  069%=      5-min Rain = 0
KCH1 111414Z 22005KT 26/20 A3014 RMK A01 T02590201  RH  070%=      5-min Rain = 0
KCH1 111415Z 23006KT 26/20 A3014 RMK A01 T02600200  RH  070%=      5-min Rain = 0
KCH1 111416Z 22008KT 26/20 A3014 RMK A01 T02600199  RH  069%=      5-min Rain = 0
KCH1 111417Z 23006KT 26/20 A3014 RMK A01 T02600199  RH  069%=      5-min Rain = 0
KCH1 111418Z 23007KT 26/20 A3014 RMK A01 T02600200  RH  069%=      5-min Rain = 0
KCH1 111419Z 23006KT 26/20 A3014 RMK A01 T02600199  RH  069%=      5-min Rain = 0
KCH1 111420Z 21004KT 26/20 A3014 RMK A01 T02600200  RH  069%=      5-min Rain = 0
KCH1 111421Z 20004KT 26/20 A3014 RMK A01 T02610201  RH  069%=      5-min Rain = 0
KCH1 111422Z 20006KT 26/20 A3014 RMK A01 T02620201  RH  069%=      5-min Rain = 0
KCH1 111423Z 20006KT 26/20 A3014 RMK A01 T02630201  RH  069%=      5-min Rain = 0
KCH1 111424Z 20006KT 26/20 A3014 RMK A01 T02630201  RH  069%=      5-min Rain = 0
KCH1 111425Z 19005KT 26/20 A3014 RMK A01 T02630201  RH  069%=      5-min Rain = 0
KCH1 111426Z 19007KT 26/20 A3014 RMK A01 T02630201  RH  069%=      5-min Rain = 0
KCH1 111427Z 19007KT 26/20 A3014 RMK A01 T02630201  RH  068%=      5-min Rain = 0
KCH1 111428Z 20006KT 26/20 A3014 RMK A01 T02630201  RH  068%=      5-min Rain = 0
KCH1 111429Z 20007KT 26/20 A3014 RMK A01 T02640200  RH  068%=      5-min Rain = 0
KCH1 111430Z 22006KT 26/20 A3014 RMK A01 T02640200  RH  068%=      5-min Rain = 0
KCH1 111431Z 19007KT 26/20 A3014 RMK A01 T02630200  RH  068%=      5-min Rain = 0
KCH1 111432Z 21006KT 26/20 A3014 RMK A01 T02640201  RH  068%=      5-min Rain = 0
KCH1 111433Z 23006KT 27/20 A3014 RMK A01 T02650201  RH  068%=      5-min Rain = 0
KCH1 111434Z 23006KT 27/20 A3014 RMK A01 T02660200  RH  067%=      5-min Rain = 0
KCH1 111435Z 24006KT 27/20 A3014 RMK A01 T02660200  RH  067%=      5-min Rain = 0
KCH1 111436Z 24005KT 27/20 A3014 RMK A01 T02650201  RH  068%=      5-min Rain = 0
KCH1 111437Z 22004KT 27/20 A3014 RMK A01 T02650200  RH  068%=      5-min Rain = 0
KCH1 111438Z 20005KT 27/20 A3014 RMK A01 T02660203  RH  068%=      5-min Rain = 0
KCH1 111439Z 19005KT 27/20 A3014 RMK A01 T02680203  RH  067%=      5-min Rain = 0
KCH1 111440Z 21005KT 27/20 A3014 RMK A01 T02690201  RH  066%=      5-min Rain = 0
KCH1 111441Z 19007KT 27/20 A3014 RMK A01 T02680202  RH  067%=      5-min Rain = 0
KCH1 111442Z 17006KT 27/20 A3014 RMK A01 T02680202  RH  067%=      5-min Rain = 0
KCH1 111443Z 20005KT 27/20 A3014 RMK A01 T02680201  RH  067%=      5-min Rain = 0
KCH1 111444Z 22003KT 27/20 A3014 RMK A01 T02690202  RH  067%=      5-min Rain = 0
KCH1 111445Z 20006KT 27/20 A3014 RMK A01 T02700204  RH  067%=      5-min Rain = 0
KCH1 111446Z 21005KT 27/20 A3014 RMK A01 T02710201  RH  066%=      5-min Rain = 0
KCH1 111447Z 21005KT 27/20 A3014 RMK A01 T02700203  RH  067%=      5-min Rain = 0
KCH1 111448Z 22005KT 27/20 A3014 RMK A01 T02700202  RH  066%=      5-min Rain = 0
KCH1 111449Z 22006KT 27/20 A3014 RMK A01 T02720204  RH  066%=      5-min Rain = 0
KCH1 111450Z 22007KT 27/20 A3014 RMK A01 T02730201  RH  065%=      5-min Rain = 0
KCH1 111451Z 21007KT 27/20 A3014 RMK A01 T02730202  RH  065%=      5-min Rain = 0
KCH1 111452Z 23006KT 27/20 A3014 RMK A01 T02730200  RH  064%=      5-min Rain = 0
KCH1 111453Z 22008KT 27/20 A3014 RMK A01 T02720200  RH  065%=      5-min Rain = 0
KCH1 111454Z 23008KT 27/20 A3014 RMK A01 T02710199  RH  065%=      5-min Rain = 0
KCH1 111455Z 19007KT 27/20 A3014 RMK A01 T02700201  RH  066%=      5-min Rain = 0
KCH1 111456Z 18007KT 27/20 A3014 RMK A01 T02710200  RH  065%=      5-min Rain = 0
KCH1 111457Z 18006KT 27/20 A3014 RMK A01 T02710201  RH  066%=      5-min Rain = 0
KCH1 111458Z 17006KT 27/20 A3014 RMK A01 T02720201  RH  065%=      5-min Rain = 0
KCH1 111459Z 17005KT 27/20 A3014 RMK A01 T02720199  RH  065%=      5-min Rain = 0
KCH1 111500Z 16003KT 27/20 A3014 RMK A01 T02710201  RH  065%=      5-min Rain = 0
KCH1 111501Z 18005KT 27/20 A3015 RMK A01 T02710203  RH  066%=      5-min Rain = 0
KCH1 111502Z 20005KT 27/20 A3015 RMK A01 T02730202  RH  065%=      5-min Rain = 0
KCH1 111503Z 20007KT 27/20 A3015 RMK A01 T02740201  RH  064%=      5-min Rain = 0
KCH1 111504Z 18006KT 28/20 A3015 RMK A01 T02750200  RH  064%=      5-min Rain = 0
KCH1 111505Z 21004KT 28/20 A3015 RMK A01 T02750202  RH  065%=      5-min Rain = 0
KCH1 111506Z 22004KT 28/20 A3015 RMK A01 T02760202  RH  064%=      5-min Rain = 0
KCH1 111507Z 22006KT 28/20 A3015 RMK A01 T02760202  RH  064%=      5-min Rain = 0
KCH1 111508Z 21005KT 28/20 A3015 RMK A01 T02760200  RH  063%=      5-min Rain = 0
KCH1 111509Z 24004KT 28/20 A3014 RMK A01 T02760202  RH  064%=      5-min Rain = 0
KCH1 111510Z 19003KT 28/20 A3014 RMK A01 T02760202  RH  064%=      5-min Rain = 0
KCH1 111511Z 18007KT 28/20 A3014 RMK A01 T02770202  RH  064%=      5-min Rain = 0
KCH1 111512Z 17007KT 28/20 A3014 RMK A01 T02770203  RH  064%=      5-min Rain = 0
KCH1 111513Z 20006KT 28/21 A3014 RMK A01 T02790205  RH  064%=      5-min Rain = 0
KCH1 111514Z 21005KT 28/20 A3014 RMK A01 T02800204  RH  063%=      5-min Rain = 0
KCH1 111515Z 21006KT 28/20 A3014 RMK A01 T02810203  RH  063%=      5-min Rain = 0
KCH1 111516Z 22005KT 28/20 A3014 RMK A01 T02810200  RH  061%=      5-min Rain = 0
KCH1 111517Z 21005KT 28/20 A3014 RMK A01 T02800202  RH  063%=      5-min Rain = 0
KCH1 111518Z 22008KT 28/20 A3014 RMK A01 T02800202  RH  063%=      5-min Rain = 0
KCH1 111519Z 22008KT 28/20 A3014 RMK A01 T02810201  RH  062%=      5-min Rain = 0
KCH1 111520Z 22006KT 28/20 A3014 RMK A01 T02800201  RH  062%=      5-min Rain = 0
KCH1 111521Z 20005KT 28/20 A3014 RMK A01 T02800201  RH  062%=      5-min Rain = 0
KCH1 111522Z 20007KT 28/20 A3014 RMK A01 T02800203  RH  063%=      5-min Rain = 0
KCH1 111523Z 20006KT 28/20 A3014 RMK A01 T02810201  RH  062%=      5-min Rain = 0
KCH1 111524Z 20007KT 28/20 A3014 RMK A01 T02800201  RH  062%=      5-min Rain = 0
KCH1 111525Z 20008KT 28/20 A3014 RMK A01 T02800202  RH  063%=      5-min Rain = 0
KCH1 111526Z 19009KT 28/20 A3014 RMK A01 T02800201  RH  062%=      5-min Rain = 0
KCH1 111527Z 19009KT 28/20 A3014 RMK A01 T02810202  RH  062%=      5-min Rain = 0
KCH1 111528Z 19006KT 28/20 A3014 RMK A01 T02810202  RH  062%=      5-min Rain = 0
KCH1 111529Z 19007KT 28/20 A3014 RMK A01 T02820202  RH  062%=      5-min Rain = 0
KCH1 111530Z 20005KT 28/20 A3014 RMK A01 T02830204  RH  062%=      5-min Rain = 0
KCH1 111531Z 20005KT 28/20 A3014 RMK A01 T02830201  RH  061%=      5-min Rain = 0
KCH1 111532Z 19006KT 28/20 A3014 RMK A01 T02830203  RH  062%=      5-min Rain = 0
KCH1 111533Z 20006KT 28/20 A3014 RMK A01 T02840202  RH  061%=      5-min Rain = 0
KCH1 111534Z 19008KT 29/20 A3014 RMK A01 T02850203  RH  061%=      5-min Rain = 0
KCH1 111535Z 19008KT 29/20 A3014 RMK A01 T02850200  RH  060%=      5-min Rain = 0
KCH1 111536Z 18005KT 28/20 A3014 RMK A01 T02840202  RH  061%=      5-min Rain = 0
KCH1 111537Z 17007KT 28/20 A3013 RMK A01 T02840201  RH  061%=      5-min Rain = 0
KCH1 111538Z 18006KT 29/21 A3013 RMK A01 T02850205  RH  062%=      5-min Rain = 0
KCH1 111539Z 19007KT 29/20 A3013 RMK A01 T02870202  RH  060%=      5-min Rain = 0
KCH1 111540Z 19005KT 29/20 A3013 RMK A01 T02860203  RH  061%=      5-min Rain = 0
KCH1 111541Z 17006KT 29/21 A3014 RMK A01 T02860206  RH  062%=      5-min Rain = 0
KCH1 111542Z 15007KT 29/20 A3014 RMK A01 T02880204  RH  060%=      5-min Rain = 0
KCH1 111543Z 16006KT 29/20 A3013 RMK A01 T02880203  RH  060%=      5-min Rain = 0
KCH1 111544Z 16005KT 29/20 A3013 RMK A01 T02880204  RH  061%=      5-min Rain = 0
KCH1 111545Z 17005KT 29/20 A3013 RMK A01 T02880203  RH  060%=      5-min Rain = 0
KCH1 111546Z 16004KT 29/20 A3013 RMK A01 T02880203  RH  060%=      5-min Rain = 0
KCH1 111547Z 16003KT 29/20 A3013 RMK A01 T02880202  RH  060%=      5-min Rain = 0
KCH1 111548Z 16005KT 29/21 A3013 RMK A01 T02890205  RH  061%=      5-min Rain = 0
KCH1 111549Z 18006G12KT 29/21 A3013 RMK A01 T02910206  RH  060%=      5-min Rain = 0
KCH1 111550Z 18006KT 29/21 A3013 RMK A01 T02930206  RH  060%=      5-min Rain = 0
KCH1 111551Z 18008KT 29/21 A3013 RMK A01 T02940205  RH  059%=      5-min Rain = 0
KCH1 111552Z 18005KT 29/20 A3013 RMK A01 T02930202  RH  058%=      5-min Rain = 0
KCH1 111553Z 19005KT 29/20 A3014 RMK A01 T02910203  RH  059%=      5-min Rain = 0
KCH1 111554Z 21003KT 29/20 A3014 RMK A01 T02900204  RH  060%=      5-min Rain = 0
KCH1 111555Z 21003KT 29/20 A3014 RMK A01 T02910203  RH  059%=      5-min Rain = 0
KCH1 111556Z 18004KT 29/20 A3014 RMK A01 T02910204  RH  060%=      5-min Rain = 0
KCH1 111557Z 15007KT 29/21 A3014 RMK A01 T02920206  RH  060%=      5-min Rain = 0
KCH1 111558Z 15008KT 29/21 A3014 RMK A01 T02940208  RH  060%=      5-min Rain = 0
KCH1 111559Z 17008KT 30/20 A3014 RMK A01 T02960204  RH  058%=      5-min Rain = 0
KCH1 111600Z 17006KT 30/20 A3014 RMK A01 T02960204  RH  058%=      5-min Rain = 0
KCH1 111601Z 17006KT 30/20 A3014 RMK A01 T02960204  RH  058%=      5-min Rain = 0
KCH1 111602Z 19007KT 30/20 A3014 RMK A01 T02960203  RH  057%=      5-min Rain = 0
KCH1 111603Z 19006KT 30/20 A3014 RMK A01 T02950204  RH  058%=      5-min Rain = 0
KCH1 111604Z 19006KT 30/20 A3014 RMK A01 T02950199  RH  056%=      5-min Rain = 0
KCH1 111605Z 20005G10KT 30/20 A3013 RMK A01 T02950200  RH  057%=      5-min Rain = 0
KCH1 111606Z 20008KT 29/20 A3013 RMK A01 T02940200  RH  057%=      5-min Rain = 0
KCH1 111607Z 19006KT 30/20 A3013 RMK A01 T02950201  RH  057%=      5-min Rain = 0
KCH1 111608Z 20006KT 30/20 A3013 RMK A01 T02960203  RH  057%=      5-min Rain = 0
KCH1 111609Z 18007KT 30/21 A3013 RMK A01 T02980206  RH  058%=      5-min Rain = 0
KCH1 111610Z 17006KT 30/20 A3013 RMK A01 T02990203  RH  056%=      5-min Rain = 0
KCH1 111611Z 18007KT 30/20 A3013 RMK A01 T02990203  RH  056%=      5-min Rain = 0
KCH1 111612Z 20004KT 30/20 A3014 RMK A01 T02980200  RH  056%=      5-min Rain = 0
KCH1 111613Z 17005KT 30/20 A3013 RMK A01 T02970203  RH  057%=      5-min Rain = 0
KCH1 111614Z 18003KT 30/20 A3013 RMK A01 T02980201  RH  056%=      5-min Rain = 0
KCH1 111615Z 17004KT 30/20 A3013 RMK A01 T02990200  RH  055%=      5-min Rain = 0
KCH1 111616Z 15003KT 30/20 A3013 RMK A01 T02980201  RH  056%=      5-min Rain = 0
KCH1 111617Z 17005KT 30/21 A3013 RMK A01 T02990205  RH  057%=      5-min Rain = 0
KCH1 111618Z 17008KT 30/20 A3013 RMK A01 T03020203  RH  055%=      5-min Rain = 0
KCH1 111619Z 18007KT 30/20 A3013 RMK A01 T03030202  RH  055%=      5-min Rain = 0
KCH1 111620Z 17007KT 30/20 A3013 RMK A01 T03030201  RH  054%=      5-min Rain = 0
KCH1 111621Z 19007KT 30/20 A3013 RMK A01 T03020199  RH  054%=      5-min Rain = 0
KCH1 111622Z 19005KT 30/20 A3013 RMK A01 T03010199  RH  055%=      5-min Rain = 0
KCH1 111623Z 19005KT 30/20 A3013 RMK A01 T03010203  RH  056%=      5-min Rain = 0
KCH1 111624Z 19005KT 30/20 A3013 RMK A01 T03020199  RH  054%=      5-min Rain = 0
KCH1 111625Z 18006KT 30/20 A3013 RMK A01 T03010197  RH  054%=      5-min Rain = 0
KCH1 111626Z 18005KT 30/20 A3013 RMK A01 T03000199  RH  055%=      5-min Rain = 0
KCH1 111627Z 19006KT 30/20 A3013 RMK A01 T03010197  RH  054%=      5-min Rain = 0
KCH1 111628Z 21004KT 30/20 A3013 RMK A01 T03020199  RH  054%=      5-min Rain = 0
KCH1 111629Z 21005KT 30/20 A3013 RMK A01 T03030199  RH  054%=      5-min Rain = 0
KCH1 111630Z 18006KT 30/20 A3013 RMK A01 T03030199  RH  054%=      5-min Rain = 0
KCH1 111631Z 18006KT 30/20 A3013 RMK A01 T03030200  RH  054%=      5-min Rain = 0
KCH1 111632Z 17007KT 30/20 A3013 RMK A01 T03030200  RH  054%=      5-min Rain = 0
KCH1 111633Z 18007KT 30/20 A3013 RMK A01 T03030198  RH  054%=      5-min Rain = 0
KCH1 111634Z 17005KT 30/20 A3013 RMK A01 T03030197  RH  053%=      5-min Rain = 0
KCH1 111635Z 18008KT 30/20 A3013 RMK A01 T03020199  RH  054%=      5-min Rain = 0
KCH1 111636Z 19009KT 30/20 A3013 RMK A01 T03030198  RH  053%=      5-min Rain = 0
KCH1 111637Z 17007KT 30/20 A3013 RMK A01 T03020198  RH  054%=      5-min Rain = 0
KCH1 111638Z 19007KT 30/20 A3013 RMK A01 T03020201  RH  055%=      5-min Rain = 0
KCH1 111639Z 19008KT 30/20 A3013 RMK A01 T03020199  RH  054%=      5-min Rain = 0
KCH1 111640Z 19007KT 30/20 A3013 RMK A01 T03030200  RH  054%=      5-min Rain = 0
KCH1 111641Z 19006KT 30/20 A3013 RMK A01 T03030198  RH  054%=      5-min Rain = 0
KCH1 111642Z 19005KT 30/20 A3013 RMK A01 T03020202  RH  055%=      5-min Rain = 0
KCH1 111643Z 18004KT 30/20 A3013 RMK A01 T03030195  RH  053%=      5-min Rain = 0
KCH1 111644Z 20003KT 30/20 A3013 RMK A01 T03020199  RH  054%=      5-min Rain = 0
KCH1 111645Z 23006KT 30/20 A3013 RMK A01 T03020196  RH  053%=      5-min Rain = 0
KCH1 111646Z 23006KT 30/20 A3013 RMK A01 T03030197  RH  053%=      5-min Rain = 0
KCH1 111647Z 23005KT 30/20 A3013 RMK A01 T03030196  RH  053%=      5-min Rain = 0
KCH1 111648Z 23004KT 30/20 A3013 RMK A01 T03020197  RH  053%=      5-min Rain = 0
KCH1 111649Z 21004KT 30/20 A3012 RMK A01 T03020196  RH  053%=      5-min Rain = 0
KCH1 111650Z 21002KT 30/20 A3013 RMK A01 T03020201  RH  055%=      5-min Rain = 0
KCH1 111651Z 20003KT 30/20 A3012 RMK A01 T03040201  RH  054%=      5-min Rain = 0
KCH1 111652Z 23006KT 31/20 A3012 RMK A01 T03070200  RH  053%=      5-min Rain = 0
KCH1 111653Z 23007KT 31/20 A3012 RMK A01 T03070200  RH  053%=      5-min Rain = 0
KCH1 111654Z 23005KT 31/20 A3012 RMK A01 T03060197  RH  052%=      5-min Rain = 0
KCH1 111655Z 21005KT 31/20 A3012 RMK A01 T03050202  RH  054%=      5-min Rain = 0
KCH1 111656Z 18005KT 31/20 A3012 RMK A01 T03070198  RH  052%=      5-min Rain = 0
KCH1 111657Z 16009KT 31/20 A3012 RMK A01 T03090201  RH  053%=      5-min Rain = 0
KCH1 111658Z 17007KT 31/21 A3012 RMK A01 T03110205  RH  053%=      5-min Rain = 0
KCH1 111659Z 18008KT 31/20 A3012 RMK A01 T03130198  RH  051%=      5-min Rain = 0
KCH1 111700Z 15006KT 31/20 A3012 RMK A01 T03110200  RH  052%=      5-min Rain = 0
KCH1 111701Z 16007KT 31/20 A3012 RMK A01 T03100195  RH  050%=      5-min Rain = 0
KCH1 111702Z 15006KT 31/20 A3012 RMK A01 T03090196  RH  051%=      5-min Rain = 0
KCH1 111703Z 15004KT 31/20 A3012 RMK A01 T03090196  RH  051%=      5-min Rain = 0
KCH1 111704Z 14002KT 31/20 A3012 RMK A01 T03100197  RH  051%=      5-min Rain = 0
KCH1 111705Z 13003KT 31/20 A3012 RMK A01 T03100196  RH  051%=      5-min Rain = 0
KCH1 111706Z 14003KT 31/20 A3012 RMK A01 T03110200  RH  052%=      5-min Rain = 0
KCH1 111707Z 16004KT 31/20 A3012 RMK A01 T03130198  RH  050%=      5-min Rain = 0
KCH1 111708Z 17003KT 31/20 A3012 RMK A01 T03120196  RH  050%=      5-min Rain = 0
KCH1 111709Z 19005KT 31/20 A3012 RMK A01 T03120196  RH  050%=      5-min Rain = 0
KCH1 111710Z 17007KT 31/19 A3012 RMK A01 T03110192  RH  049%=      5-min Rain = 0
KCH1 111711Z 17007KT 31/19 A3012 RMK A01 T03120192  RH  049%=      5-min Rain = 0
KCH1 111712Z 17006KT 31/19 A3012 RMK A01 T03130191  RH  048%=      5-min Rain = 0
KCH1 111713Z 19006KT 31/19 A3012 RMK A01 T03130192  RH  048%=      5-min Rain = 0
KCH1 111714Z 19004KT 31/19 A3012 RMK A01 T03120189  RH  048%=      5-min Rain = 0
KCH1 111715Z 13005KT 31/20 A3012 RMK A01 T03110196  RH  050%=      5-min Rain = 0
KCH1 111716Z 14005KT 31/20 A3012 RMK A01 T03120195  RH  050%=      5-min Rain = 0
KCH1 111717Z 18004KT 31/19 A3012 RMK A01 T03140192  RH  049%=      5-min Rain = 0
KCH1 111718Z 17002KT 31/19 A3012 RMK A01 T03130187  RH  047%=      5-min Rain = 0
KCH1 111719Z 17005KT 31/19 A3012 RMK A01 T03130188  RH  047%=      5-min Rain = 0
KCH1 111720Z 16007KT 31/19 A3012 RMK A01 T03130191  RH  048%=      5-min Rain = 0
KCH1 111721Z 15007KT 32/19 A3012 RMK A01 T03150186  RH  046%=      5-min Rain = 0
KCH1 111722Z 15004KT 32/19 A3012 RMK A01 T03150191  RH  048%=      5-min Rain = 0
KCH1 111723Z 14004KT 32/19 A3012 RMK A01 T03170188  RH  046%=      5-min Rain = 0
KCH1 111724Z 13005KT 32/19 A3012 RMK A01 T03180189  RH  046%=      5-min Rain = 0
KCH1 111725Z 13006KT 32/19 A3012 RMK A01 T03190191  RH  047%=      5-min Rain = 0
KCH1 111726Z 13010KT 32/19 A3012 RMK A01 T03210193  RH  047%=      5-min Rain = 0
KCH1 111727Z 13009KT 32/19 A3012 RMK A01 T03210194  RH  047%=      5-min Rain = 0
KCH1 111728Z 12008KT 32/20 A3012 RMK A01 T03200195  RH  048%=      5-min Rain = 0
KCH1 111729Z 15010KT 32/20 A3012 RMK A01 T03210197  RH  048%=      5-min Rain = 0
KCH1 111730Z 15007KT 32/19 A3012 RMK A01 T03210194  RH  047%=      5-min Rain = 0
KCH1 111731Z 14007KT 32/19 A3012 RMK A01 T03200189  RH  046%=      5-min Rain = 0
KCH1 111732Z 15005KT 32/19 A3012 RMK A01 T03170190  RH  047%=      5-min Rain = 0
KCH1 111733Z 16007KT 32/19 A3012 RMK A01 T03160193  RH  048%=      5-min Rain = 0
KCH1 111734Z 16008KT 32/19 A3012 RMK A01 T03170194  RH  048%=      5-min Rain = 0
KCH1 111735Z 19006KT 32/19 A3012 RMK A01 T03170191  RH  047%=      5-min Rain = 0
KCH1 111736Z 20007KT 32/19 A3012 RMK A01 T03190190  RH  046%=      5-min Rain = 0
KCH1 111737Z 20007KT 32/19 A3012 RMK A01 T03190189  RH  046%=      5-min Rain = 0
KCH1 111738Z 20006KT 32/19 A3012 RMK A01 T03170191  RH  047%=      5-min Rain = 0
KCH1 111739Z 20005KT 32/19 A3012 RMK A01 T03170190  RH  047%=      5-min Rain = 0
KCH1 111740Z 18006G11KT 32/19 A3012 RMK A01 T03180187  RH  046%=      5-min Rain = 0
KCH1 111741Z 19006KT 32/18 A3012 RMK A01 T03190184  RH  045%=      5-min Rain = 0
KCH1 111742Z 15008KT 32/19 A3011 RMK A01 T03190187  RH  046%=      5-min Rain = 0
KCH1 111743Z 14009KT 32/19 A3012 RMK A01 T03200192  RH  047%=      5-min Rain = 0
KCH1 111744Z 12007KT 32/19 A3011 RMK A01 T03220191  RH  046%=      5-min Rain = 0
KCH1 111745Z 11006KT 32/19 A3011 RMK A01 T03220191  RH  046%=      5-min Rain = 0
KCH1 111746Z 13005KT 32/19 A3011 RMK A01 T03220188  RH  045%=      5-min Rain = 0
KCH1 111747Z 14008KT 32/19 A3011 RMK A01 T03210192  RH  046%=      5-min Rain = 0
KCH1 111748Z 15007KT 32/19 A3011 RMK A01 T03210189  RH  045%=      5-min Rain = 0
KCH1 111749Z 14008KT 32/19 A3011 RMK A01 T03220188  RH  045%=      5-min Rain = 0
KCH1 111750Z 15009KT 32/19 A3011 RMK A01 T03220185  RH  044%=      5-min Rain = 0
KCH1 111751Z 15011KT 32/18 A3011 RMK A01 T03230184  RH  044%=      5-min Rain = 0
KCH1 111752Z 16011KT 32/18 A3011 RMK A01 T03240183  RH  043%=      5-min Rain = 0
KCH1 111753Z 15010KT 32/18 A3011 RMK A01 T03230184  RH  044%=      5-min Rain = 0
KCH1 111754Z 15009KT 32/18 A3011 RMK A01 T03230181  RH  043%=      5-min Rain = 0
KCH1 111755Z 13007KT 32/18 A3011 RMK A01 T03220181  RH  043%=      5-min Rain = 0
KCH1 111756Z 14006KT 32/18 A3011 RMK A01 T03210182  RH  044%=      5-min Rain = 0
KCH1 111757Z 15008KT 32/18 A3011 RMK A01 T03220184  RH  044%=      5-min Rain = 0
KCH1 111758Z 14006G11KT 32/18 A3011 RMK A01 T03230178  RH  042%=      5-min Rain = 0
KCH1 111759Z 15009KT 32/18 A3011 RMK A01 T03220181  RH  043%=      5-min Rain = 0
KCH1 111800Z 17007KT 32/18 A3011 RMK A01 T03220181  RH  043%=      5-min Rain = 0
KCH1 111801Z 18004KT 32/18 A3011 RMK A01 T03220177  RH  042%=      5-min Rain = 0
KCH1 111802Z 16010KT 32/18 A3011 RMK A01 T03200182  RH  044%=      5-min Rain = 0
KCH1 111803Z 15011KT 32/18 A3011 RMK A01 T03200183  RH  044%=      5-min Rain = 0
KCH1 111804Z 17009KT 32/18 A3011 RMK A01 T03200183  RH  044%=      5-min Rain = 0
KCH1 111805Z 17008KT 32/19 A3011 RMK A01 T03220185  RH  044%=      5-min Rain = 0
KCH1 111806Z 14008KT 32/19 A3011 RMK A01 T03240186  RH  044%=      5-min Rain = 0
KCH1 111807Z 15009KT 33/19 A3011 RMK A01 T03250189  RH  045%=      5-min Rain = 0
KCH1 111808Z 12009KT 33/19 A3011 RMK A01 T03260187  RH  044%=      5-min Rain = 0
KCH1 111809Z 11007KT 33/19 A301 RMK A01 T03260190  RH  045%=      5-min Rain = 0
KCH1 111810Z 13009KT 33/19 A301 RMK A01 T03270192  RH  045%=      5-min Rain = 0
KCH1 111811Z 15009G14KT 33/19 A301 RMK A01 T03280191  RH  044%=      5-min Rain = 0
KCH1 111812Z 16007KT 33/19 A301 RMK A01 T03280189  RH  044%=      5-min Rain = 0
KCH1 111813Z 15008KT 33/19 A301 RMK A01 T03260185  RH  043%=      5-min Rain = 0
KCH1 111814Z 17006KT 33/20 A301 RMK A01 T03270195  RH  046%=      5-min Rain = 0
KCH1 111815Z 18005KT 33/19 A301 RMK A01 T03300192  RH  044%=      5-min Rain = 0
KCH1 111816Z 16009KT 33/19 A301 RMK A01 T03310185  RH  042%=      5-min Rain = 0
KCH1 111817Z 17009KT 33/18 A301 RMK A01 T03290182  RH  042%=      5-min Rain = 0
KCH1 111818Z 15006KT 33/18 A301 RMK A01 T03260182  RH  042%=      5-min Rain = 0
KCH1 111819Z 15011G17KT 33/19 A301 RMK A01 T03260189  RH  044%=      5-min Rain = 0
KCH1 111820Z 16013KT 33/19 A301 RMK A01 T03270185  RH  043%=      5-min Rain = 0
KCH1 111821Z 18009KT 33/19 A301 RMK A01 T03280187  RH  043%=      5-min Rain = 0
KCH1 111822Z 18009KT 33/18 A301 RMK A01 T03280183  RH  042%=      5-min Rain = 0
KCH1 111823Z 18012KT 33/18 A301 RMK A01 T03260184  RH  043%=      5-min Rain = 0
KCH1 111824Z 19009KT 33/18 A301 RMK A01 T03250182  RH  043%=      5-min Rain = 0
KCH1 111825Z 18009KT 32/18 A301 RMK A01 T03230181  RH  043%=      5-min Rain = 0
KCH1 111826Z 18009KT 32/18 A301 RMK A01 T03220184  RH  044%=      5-min Rain = 0
KCH1 111827Z 19009KT 32/19 A301 RMK A01 T03210185  RH  044%=      5-min Rain = 0
KCH1 111828Z 18009KT 32/18 A301 RMK A01 T03220181  RH  043%=      5-min Rain = 0
KCH1 111829Z 18006KT 32/18 A301 RMK A01 T03230182  RH  043%=      5-min Rain = 0
KCH1 111830Z 17008KT 32/18 A301 RMK A01 T03240183  RH  043%=      5-min Rain = 0
KCH1 111831Z 16008KT 33/18 A301 RMK A01 T03260179  RH  042%=      5-min Rain = 0
KCH1 111832Z 17006KT 33/18 A301 RMK A01 T03260180  RH  042%=      5-min Rain = 0
KCH1 111833Z 17006KT 33/18 A301 RMK A01 T03260182  RH  042%=      5-min Rain = 0
KCH1 111834Z 18006G11KT 33/18 A301 RMK A01 T03290182  RH  042%=      5-min Rain = 0
KCH1 111835Z 17009KT 33/18 A301 RMK A01 T03310179  RH  041%=      5-min Rain = 0
KCH1 111836Z 17009KT 33/18 A301 RMK A01 T03300180  RH  041%=      5-min Rain = 0
KCH1 111837Z 16008KT 33/18 A301 RMK A01 T03290184  RH  042%=      5-min Rain = 0
KCH1 111838Z 16006KT 33/18 A301 RMK A01 T03280179  RH  041%=      5-min Rain = 0
KCH1 111839Z 14008KT 33/18 A301 RMK A01 T03250183  RH  043%=      5-min Rain = 0
KCH1 111840Z 14008KT 32/18 A301 RMK A01 T03220183  RH  044%=      5-min Rain = 0
KCH1 111841Z 15007KT 32/19 A301 RMK A01 T03200185  RH  045%=      5-min Rain = 0
KCH1 111842Z 13007KT 32/19 A301 RMK A01 T03230191  RH  046%=      5-min Rain = 0
KCH1 111843Z 14010KT 33/19 A301 RMK A01 T03270188  RH  044%=      5-min Rain = 0
KCH1 111844Z 16009KT 33/19 A3009 RMK A01 T03280185  RH  043%=      5-min Rain = 0
KCH1 111845Z 17008KT 33/19 A3009 RMK A01 T03270186  RH  043%=      5-min Rain = 0
KCH1 111846Z 15010KT 33/18 A3009 RMK A01 T03250184  RH  043%=      5-min Rain = 0
KCH1 111847Z 17010KT 32/18 A3009 RMK A01 T03240183  RH  043%=      5-min Rain = 0
KCH1 111848Z 17012KT 32/18 A3009 RMK A01 T03240181  RH  043%=      5-min Rain = 0
KCH1 111849Z 16010KT 33/18 A3009 RMK A01 T03250180  RH  042%=      5-min Rain = 0
KCH1 111850Z 16009KT 33/18 A3009 RMK A01 T03270181  RH  042%=      5-min Rain = 0
KCH1 111851Z 18010KT 33/18 A3009 RMK A01 T03280184  RH  043%=      5-min Rain = 0
KCH1 111852Z 18010KT 33/19 A3009 RMK A01 T03300187  RH  043%=      5-min Rain = 0
KCH1 111853Z 19009KT 33/18 A3009 RMK A01 T03320183  RH  041%=      5-min Rain = 0
KCH1 111854Z 19008KT 33/18 A3009 RMK A01 T03300179  RH  041%=      5-min Rain = 0
KCH1 111855Z 17009KT 33/18 A3009 RMK A01 T03280184  RH  042%=      5-min Rain = 0
KCH1 111856Z 19011KT 33/18 A3009 RMK A01 T03290183  RH  042%=      5-min Rain = 0
KCH1 111857Z 19011KT 33/19 A3009 RMK A01 T03290185  RH  043%=      5-min Rain = 0
KCH1 111858Z 17010KT 33/19 A3009 RMK A01 T03290186  RH  043%=      5-min Rain = 0
KCH1 111859Z 17008KT 33/19 A3009 RMK A01 T03290187  RH  043%=      5-min Rain = 0
KCH1 111900Z 17008KT 33/18 A3009 RMK A01 T03270183  RH  043%=      5-min Rain = 0
KCH1 111901Z 18005KT 32/18 A3009 RMK A01 T03240180  RH  042%=      5-min Rain = 0
KCH1 111902Z 16004KT 32/18 A3009 RMK A01 T03240184  RH  043%=      5-min Rain = 0
KCH1 111903Z 13006KT 33/19 A3009 RMK A01 T03270188  RH  044%=      5-min Rain = 0
KCH1 111904Z 14006KT 33/18 A3008 RMK A01 T03290182  RH  042%=      5-min Rain = 0
KCH1 111905Z 12004KT 33/18 A3008 RMK A01 T03270181  RH  042%=      5-min Rain = 0
KCH1 111906Z 16005G11KT 33/19 A3008 RMK A01 T03260187  RH  044%=      5-min Rain = 0
KCH1 111907Z 17009KT 33/19 A3008 RMK A01 T03300190  RH  044%=      5-min Rain = 0
KCH1 111908Z 16007KT 33/19 A3008 RMK A01 T03320190  RH  043%=      5-min Rain = 0
KCH1 111909Z 17007KT 33/19 A3008 RMK A01 T03330187  RH  042%=      5-min Rain = 0
KCH1 111910Z 19007KT 33/19 A3008 RMK A01 T03340191  RH  043%=      5-min Rain = 0
KCH1 111911Z 19008KT 34/19 A3008 RMK A01 T03360188  RH  042%=      5-min Rain = 0
KCH1 111912Z 18006KT 34/19 A3008 RMK A01 T03360190  RH  042%=      5-min Rain = 0
KCH1 111913Z 18006KT 34/19 A3008 RMK A01 T03350188  RH  042%=      5-min Rain = 0
KCH1 111914Z 17005KT 34/19 A3008 RMK A01 T03350191  RH  043%=      5-min Rain = 0
KCH1 111915Z 17006KT 34/19 A3008 RMK A01 T03370194  RH  043%=      5-min Rain = 0
KCH1 111916Z 17011KT 34/19 A3007 RMK A01 T03390189  RH  041%=      5-min Rain = 0
KCH1 111917Z 17010KT 34/18 A3007 RMK A01 T03370182  RH  040%=      5-min Rain = 0
KCH1 111918Z 16005KT 33/19 A3007 RMK A01 T03340188  RH  042%=      5-min Rain = 0
KCH1 111919Z 15009KT 34/19 A3007 RMK A01 T03350192  RH  043%=      5-min Rain = 0
KCH1 111920Z 15008KT 34/19 A3007 RMK A01 T03360190  RH  042%=      5-min Rain = 0
KCH1 111921Z 14006KT 34/19 A3007 RMK A01 T03350188  RH  042%=      5-min Rain = 0
KCH1 111922Z 15005KT 33/19 A3007 RMK A01 T03340191  RH  043%=      5-min Rain = 0
KCH1 111923Z 13008KT 34/19 A3007 RMK A01 T03360194  RH  043%=      5-min Rain = 0
KCH1 111924Z 13011KT 34/19 A3007 RMK A01 T03380189  RH  041%=      5-min Rain = 0
KCH1 111925Z 15013KT 34/18 A3007 RMK A01 T03370184  RH  040%=      5-min Rain = 0
KCH1 111926Z 15011KT 33/18 A3007 RMK A01 T03340181  RH  041%=      5-min Rain = 0
KCH1 111927Z 14010KT 33/19 A3007 RMK A01 T03310185  RH  042%=      5-min Rain = 0
KCH1 111928Z 14011KT 33/18 A3007 RMK A01 T03280179  RH  041%=      5-min Rain = 0
KCH1 111929Z 15011KT 33/18 A3007 RMK A01 T03250180  RH  042%=      5-min Rain = 0
KCH1 111930Z 14010KT 33/18 A3007 RMK A01 T03260181  RH  042%=      5-min Rain = 0
KCH1 111931Z 15010G15KT 33/18 A3007 RMK A01 T03300177  RH  040%=      5-min Rain = 0
KCH1 111932Z 14007KT 33/18 A3006 RMK A01 T03310180  RH  041%=      5-min Rain = 0
KCH1 111933Z 18009KT 33/18 A3006 RMK A01 T03330181  RH  041%=      5-min Rain = 0
KCH1 111934Z 18007KT 34/19 A3006 RMK A01 T03350185  RH  041%=      5-min Rain = 0
KCH1 111935Z 18008KT 34/18 A3006 RMK A01 T03370182  RH  040%=      5-min Rain = 0
KCH1 111936Z 20009G17KT 34/19 A3006 RMK A01 T03370185  RH  041%=      5-min Rain = 0
KCH1 111937Z 20012KT 34/18 A3006 RMK A01 T03370179  RH  039%=      5-min Rain = 0
KCH1 111938Z 19010KT 34/18 A3006 RMK A01 T03360181  RH  040%=      5-min Rain = 0
KCH1 111939Z 15012KT 34/18 A3006 RMK A01 T03360182  RH  040%=      5-min Rain = 0
KCH1 111940Z 15014KT 34/18 A3006 RMK A01 T03360183  RH  040%=      5-min Rain = 0
KCH1 111941Z 16009KT 34/18 A3006 RMK A01 T03350178  RH  039%=      5-min Rain = 0
KCH1 111942Z 14009KT 33/18 A3006 RMK A01 T03340181  RH  040%=      5-min Rain = 0
KCH1 111943Z 14008KT 33/18 A3006 RMK A01 T03340183  RH  041%=      5-min Rain = 0
KCH1 111944Z 14007KT 34/19 A3006 RMK A01 T03370186  RH  041%=      5-min Rain = 0
KCH1 111945Z 15009KT 34/18 A3006 RMK A01 T03390184  RH  040%=      5-min Rain = 0
KCH1 111946Z 16008KT 34/18 A3006 RMK A01 T03390183  RH  040%=      5-min Rain = 0
KCH1 111947Z 16008KT 34/18 A3006 RMK A01 T03390183  RH  040%=      5-min Rain = 0
KCH1 111948Z 15009KT 34/17 A3006 RMK A01 T03400172  RH  037%=      5-min Rain = 0
KCH1 111949Z 16011KT 34/17 A3006 RMK A01 T03410166  RH  035%=      5-min Rain = 0
KCH1 111950Z 16011KT 34/17 A3006 RMK A01 T03410167  RH  036%=      5-min Rain = 0
KCH1 111951Z 18008KT 34/17 A3006 RMK A01 T03400173  RH  037%=      5-min Rain = 0
KCH1 111952Z 17008KT 34/17 A3006 RMK A01 T03410168  RH  036%=      5-min Rain = 0
KCH1 111953Z 18008KT 34/17 A3006 RMK A01 T03410169  RH  036%=      5-min Rain = 0
KCH1 111954Z 15006KT 34/17 A3006 RMK A01 T03410172  RH  037%=      5-min Rain = 0
KCH1 111955Z 14007KT 34/19 A3006 RMK A01 T03430190  RH  041%=      5-min Rain = 0
KCH1 111956Z 12008KT 35/18 A3005 RMK A01 T03450183  RH  038%=      5-min Rain = 0
KCH1 111957Z 13008KT 34/18 A3005 RMK A01 T03440182  RH  038%=      5-min Rain = 0
KCH1 111958Z 14007KT 34/19 A3005 RMK A01 T03420186  RH  040%=      5-min Rain = 0
KCH1 111959Z 15011KT 34/19 A3005 RMK A01 T03430185  RH  039%=      5-min Rain = 0
KCH1 112000Z 16010KT 34/18 A3005 RMK A01 T03440182  RH  039%=      5-min Rain = 0
KCH1 112001Z 14011KT 34/18 A3005 RMK A01 T03420182  RH  039%=      5-min Rain = 0
KCH1 112002Z 15013KT 34/18 A3005 RMK A01 T03410179  RH  038%=      5-min Rain = 0
KCH1 112003Z 15010KT 34/18 A3005 RMK A01 T03390177  RH  038%=      5-min Rain = 0
KCH1 112004Z 14009KT 34/18 A3005 RMK A01 T03390178  RH  038%=      5-min Rain = 0
KCH1 112005Z 13006KT 34/18 A3005 RMK A01 T03390177  RH  038%=      5-min Rain = 0
KCH1 112006Z 12007KT 34/18 A3005 RMK A01 T03390182  RH  039%=      5-min Rain = 0
KCH1 112007Z 12007KT 34/19 A3005 RMK A01 T03420186  RH  040%=      5-min Rain = 0
KCH1 112008Z 12009KT 34/18 A3005 RMK A01 T03440179  RH  038%=      5-min Rain = 0
KCH1 112009Z 13006KT 34/19 A3005 RMK A01 T03430186  RH  039%=      5-min Rain = 0
KCH1 112010Z 13008KT 35/18 A3005 RMK A01 T03450184  RH  039%=      5-min Rain = 0
KCH1 112011Z 16006KT 35/18 A3005 RMK A01 T03450182  RH  038%=      5-min Rain = 0
KCH1 112012Z 15005KT 35/18 A3004 RMK A01 T03450182  RH  038%=      5-min Rain = 0
KCH1 112013Z 14010KT 35/18 A3004 RMK A01 T03460182  RH  038%=      5-min Rain = 0
KCH1 112014Z 14008KT 35/18 A3004 RMK A01 T03460181  RH  038%=      5-min Rain = 0
KCH1 112015Z 13008KT 35/18 A3004 RMK A01 T03460181  RH  038%=      5-min Rain = 0
KCH1 112016Z 20006KT 35/18 A3004 RMK A01 T03460180  RH  037%=      5-min Rain = 0
KCH1 112017Z 18011KT 35/17 A3004 RMK A01 T03470173  RH  036%=      5-min Rain = 0
KCH1 112018Z 19010KT 35/17 A3004 RMK A01 T03460168  RH  035%=      5-min Rain = 0
KCH1 112019Z 19009KT 35/17 A3004 RMK A01 T03450167  RH  035%=      5-min Rain = 0
KCH1 112020Z 17009KT 35/17 A3004 RMK A01 T03450169  RH  035%=      5-min Rain = 0
KCH1 112021Z 15008KT 35/17 A3004 RMK A01 T03450170  RH  035%=      5-min Rain = 0
KCH1 112022Z 14010KT 35/17 A3004 RMK A01 T03460171  RH  036%=      5-min Rain = 0
KCH1 112023Z 15010KT 35/17 A3004 RMK A01 T03450171  RH  036%=      5-min Rain = 0
KCH1 112024Z 15006KT 34/17 A3004 RMK A01 T03440172  RH  036%=      5-min Rain = 0
KCH1 112025Z 16007KT 34/18 A3004 RMK A01 T03440176  RH  037%=      5-min Rain = 0
KCH1 112026Z 15006KT 34/18 A3004 RMK A01 T03440178  RH  037%=      5-min Rain = 0
KCH1 112027Z 15007KT 35/17 A3004 RMK A01 T03460174  RH  036%=      5-min Rain = 0
KCH1 112028Z 15008KT 35/17 A3004 RMK A01 T03450172  RH  036%=      5-min Rain = 0
KCH1 112029Z 20006KT 34/17 A3004 RMK A01 T03440173  RH  036%=      5-min Rain = 0
KCH1 112030Z 20008KT 34/16 A3004 RMK A01 T03430162  RH  034%=      5-min Rain = 0
KCH1 112031Z 20007KT 34/16 A3004 RMK A01 T03410158  RH  034%=      5-min Rain = 0
KCH1 112032Z 18009KT 34/16 A3004 RMK A01 T03390157  RH  034%=      5-min Rain = 0
KCH1 112033Z 18008KT 34/16 A3004 RMK A01 T03370160  RH  035%=      5-min Rain = 0
KCH1 112034Z 13006KT 34/17 A3004 RMK A01 T03360171  RH  038%=      5-min Rain = 0
KCH1 112035Z 15006KT 34/18 A3004 RMK A01 T03390180  RH  039%=      5-min Rain = 0
KCH1 112036Z 12006KT 34/18 A3004 RMK A01 T03440178  RH  037%=      5-min Rain = 0
KCH1 112037Z 08007KT 35/17 A3003 RMK A01 T03450174  RH  036%=      5-min Rain = 0
KCH1 112038Z 16008KT 35/18 A3003 RMK A01 T03460183  RH  038%=      5-min Rain = 0
KCH1 112039Z 15009KT 35/18 A3003 RMK A01 T03500182  RH  037%=      5-min Rain = 0
KCH1 112040Z 16010KT 35/18 A3003 RMK A01 T03510177  RH  036%=      5-min Rain = 0
KCH1 112041Z 16010KT 35/17 A3003 RMK A01 T03500170  RH  034%=      5-min Rain = 0
KCH1 112042Z 16006KT 35/17 A3003 RMK A01 T03450167  RH  035%=      5-min Rain = 0
KCH1 112043Z 12009KT 34/17 A3003 RMK A01 T03420170  RH  036%=      5-min Rain = 0
KCH1 112044Z 14007KT 34/17 A3003 RMK A01 T03390171  RH  037%=      5-min Rain = 0
KCH1 112045Z 14005KT 34/17 A3003 RMK A01 T03390173  RH  037%=      5-min Rain = 0
KCH1 112046Z 13005KT 34/18 A3003 RMK A01 T03390175  RH  038%=      5-min Rain = 0
KCH1 112047Z 15005KT 34/18 A3003 RMK A01 T03410176  RH  038%=      5-min Rain = 0
KCH1 112048Z 15006KT 34/17 A3003 RMK A01 T03430168  RH  035%=      5-min Rain = 0
KCH1 112049Z 16009KT 34/17 A3003 RMK A01 T03420169  RH  036%=      5-min Rain = 0
KCH1 112050Z 15010KT 34/17 A3003 RMK A01 T03390166  RH  036%=      5-min Rain = 0
KCH1 112051Z 14009KT 34/17 A3003 RMK A01 T03360167  RH  037%=      5-min Rain = 0
KCH1 112052Z 14007KT 33/17 A3003 RMK A01 T03330166  RH  037%=      5-min Rain = 0
KCH1 112053Z 12007KT 33/17 A3003 RMK A01 T03320168  RH  038%=      5-min Rain = 0
KCH1 112054Z 13007KT 33/17 A3003 RMK A01 T03310166  RH  037%=      5-min Rain = 0
KCH1 112055Z 14007KT 33/17 A3003 RMK A01 T03340166  RH  037%=      5-min Rain = 0
KCH1 112056Z 15007KT 34/17 A3003 RMK A01 T03380171  RH  037%=      5-min Rain = 0
KCH1 112057Z 17006KT 34/16 A3003 RMK A01 T03410164  RH  035%=      5-min Rain = 0
KCH1 112058Z 18004KT 34/16 A3003 RMK A01 T03420162  RH  034%=      5-min Rain = 0
KCH1 112059Z 18005KT 34/17 A3002 RMK A01 T03420165  RH  035%=      5-min Rain = 0
KCH1 112100Z 15008G13KT 34/17 A3003 RMK A01 T03420169  RH  036%=      5-min Rain = 0
KCH1 112101Z 15011KT 34/17 A3002 RMK A01 T03440172  RH  036%=      5-min Rain = 0
KCH1 112102Z 15009KT 35/17 A3002 RMK A01 T03460170  RH  035%=      5-min Rain = 0
KCH1 112103Z 14010KT 35/17 A3002 RMK A01 T03450169  RH  035%=      5-min Rain = 0
KCH1 112104Z 12011KT 35/17 A3002 RMK A01 T03450171  RH  036%=      5-min Rain = 0
KCH1 112105Z 13010KT 35/17 A3002 RMK A01 T03450168  RH  035%=      5-min Rain = 0
KCH1 112106Z 13009KT 35/17 A3002 RMK A01 T03450167  RH  035%=      5-min Rain = 0
KCH1 112107Z 12009KT 35/17 A3002 RMK A01 T03450170  RH  035%=      5-min Rain = 0
KCH1 112108Z 13009KT 35/17 A3002 RMK A01 T03450165  RH  034%=      5-min Rain = 0
KCH1 112109Z 12008KT 35/17 A3002 RMK A01 T03450169  RH  035%=      5-min Rain = 0
KCH1 112110Z 12012G17KT 35/17 A3002 RMK A01 T03450170  RH  035%=      5-min Rain = 0
KCH1 112111Z 13012KT 35/17 A3002 RMK A01 T03460166  RH  034%=      5-min Rain = 0
KCH1 112112Z 13007KT 34/16 A3002 RMK A01 T03430161  RH  034%=      5-min Rain = 0
KCH1 112113Z 16008KT 34/17 A3002 RMK A01 T03400167  RH  036%=      5-min Rain = 0
KCH1 112114Z 18006KT 34/16 A3002 RMK A01 T03370163  RH  035%=      5-min Rain = 0
KCH1 112115Z 18007KT 34/16 A3002 RMK A01 T03360163  RH  036%=      5-min Rain = 0
KCH1 112116Z 18009KT 34/16 A3002 RMK A01 T03350160  RH  035%=      5-min Rain = 0
KCH1 112117Z 17005KT 33/16 A3002 RMK A01 T03330160  RH  035%=      5-min Rain = 0
KCH1 112118Z 16006KT 33/16 A3002 RMK A01 T03340162  RH  036%=      5-min Rain = 0
KCH1 112119Z 13005KT 34/17 A3002 RMK A01 T03350171  RH  038%=      5-min Rain = 0
KCH1 112120Z 14008KT 34/17 A3002 RMK A01 T03390169  RH  036%=      5-min Rain = 0
KCH1 112121Z 14006KT 34/17 A3002 RMK A01 T03430169  RH  035%=      5-min Rain = 0
KCH1 112122Z 17010KT 34/17 A3002 RMK A01 T03440168  RH  035%=      5-min Rain = 0
KCH1 112123Z 16012KT 34/17 A3001 RMK A01 T03420166  RH  035%=      5-min Rain = 0
KCH1 112124Z 13010KT 34/17 A3001 RMK A01 T03390168  RH  036%=      5-min Rain = 0
KCH1 112125Z 14008KT 34/17 A3001 RMK A01 T03370166  RH  036%=      5-min Rain = 0
KCH1 112126Z 15006KT 34/17 A3001 RMK A01 T03360168  RH  037%=      5-min Rain = 0
KCH1 112127Z 15007KT 34/17 A3001 RMK A01 T03350171  RH  038%=      5-min Rain = 0
KCH1 112128Z 14008KT 34/17 A3001 RMK A01 T03350167  RH  037%=      5-min Rain = 0
KCH1 112129Z 15009KT 34/17 A3001 RMK A01 T03350168  RH  037%=      5-min Rain = 0
KCH1 112130Z 15006KT 34/16 A3001 RMK A01 T03350163  RH  036%=      5-min Rain = 0
KCH1 112131Z 15006KT 34/17 A3001 RMK A01 T03360169  RH  037%=      5-min Rain = 0
KCH1 112132Z 15005KT 34/17 A3001 RMK A01 T03360170  RH  037%=      5-min Rain = 0
KCH1 112133Z 17005KT 34/17 A3001 RMK A01 T03360166  RH  036%=      5-min Rain = 0
KCH1 112134Z 15005KT 34/16 A3001 RMK A01 T03370158  RH  034%=      5-min Rain = 0
KCH1 112135Z 16003KT 34/17 A3001 RMK A01 T03380171  RH  037%=      5-min Rain = 0
KCH1 112136Z 16003KT 34/17 A3001 RMK A01 T03400170  RH  036%=      5-min Rain = 0
KCH1 112137Z 18005KT 34/16 A3001 RMK A01 T03420160  RH  034%=      5-min Rain = 0
KCH1 112138Z 15004KT 34/17 A3001 RMK A01 T03430167  RH  035%=      5-min Rain = 0
KCH1 112139Z 15005KT 35/16 A3001 RMK A01 T03460164  RH  034%=      5-min Rain = 0
KCH1 112140Z 12006KT 35/17 A3001 RMK A01 T03470169  RH  035%=      5-min Rain = 0
KCH1 112141Z 14010KT 35/16 A3001 RMK A01 T03470163  RH  034%=      5-min Rain = 0
KCH1 112142Z 13011KT 35/17 A3001 RMK A01 T03470166  RH  034%=      5-min Rain = 0
KCH1 112143Z 14010KT 35/16 A3001 RMK A01 T03470161  RH  033%=      5-min Rain = 0
KCH1 112144Z 14008KT 35/16 A3001 RMK A01 T03470161  RH  033%=      5-min Rain = 0
KCH1 112145Z 14010KT 35/16 A3001 RMK A01 T03450161  RH  033%=      5-min Rain = 0
KCH1 112146Z 14009KT 34/16 A3001 RMK A01 T03430159  RH  033%=      5-min Rain = 0
KCH1 112147Z 15007KT 34/16 A3001 RMK A01 T03420158  RH  033%=      5-min Rain = 0
KCH1 112148Z 16006KT 34/16 A30 RMK A01 T03410155  RH  033%=      5-min Rain = 0
KCH1 112149Z 15005KT 34/16 A30 RMK A01 T03400162  RH  035%=      5-min Rain = 0
KCH1 112150Z 15006KT 34/16 A30 RMK A01 T03400163  RH  035%=      5-min Rain = 0
KCH1 112151Z 15006KT 34/16 A30 RMK A01 T03430160  RH  034%=      5-min Rain = 0
KCH1 112152Z 12006KT 35/16 A30 RMK A01 T03450162  RH  034%=      5-min Rain = 0
KCH1 112153Z 12008KT 35/16 A30 RMK A01 T03460160  RH  033%=      5-min Rain = 0
KCH1 112154Z 12006KT 35/16 A30 RMK A01 T03450161  RH  033%=      5-min Rain = 0
KCH1 112155Z 11005KT 34/16 A30 RMK A01 T03440164  RH  034%=      5-min Rain = 0
KCH1 112156Z 12006KT 34/16 A30 RMK A01 T03430163  RH  034%=      5-min Rain = 0
KCH1 112157Z 13004KT 34/16 A30 RMK A01 T03430163  RH  034%=      5-min Rain = 0
KCH1 112158Z 14004KT 35/17 A30 RMK A01 T03450172  RH  036%=      5-min Rain = 0
KCH1 112159Z 17005KT 35/17 A30 RMK A01 T03490166  RH  034%=      5-min Rain = 0
KCH1 112200Z 19006KT 35/16 A30 RMK A01 T03500164  RH  033%=      5-min Rain = 0
KCH1 112201Z 16008KT 35/16 A30 RMK A01 T03500161  RH  033%=      5-min Rain = 0
KCH1 112202Z 14010KT 35/16 A30 RMK A01 T03490157  RH  032%=      5-min Rain = 0
KCH1 112203Z 15012G17KT 35/16 A30 RMK A01 T03480163  RH  033%=      5-min Rain = 0
KCH1 112204Z 19012KT 35/16 A30 RMK A01 T03480157  RH  032%=      5-min Rain = 0
KCH1 112205Z 19009KT 35/15 A30 RMK A01 T03480154  RH  032%=      5-min Rain = 0
KCH1 112206Z 19008KT 35/16 A30 RMK A01 T03470156  RH  032%=      5-min Rain = 0
KCH1 112207Z 19006KT 35/15 A2999 RMK A01 T03470154  RH  032%=      5-min Rain = 0
KCH1 112208Z 15006KT 35/16 A2999 RMK A01 T03480162  RH  033%=      5-min Rain = 0
KCH1 112209Z 15007KT 35/16 A2999 RMK A01 T03500157  RH  032%=      5-min Rain = 0
KCH1 112210Z 17006KT 35/16 A2999 RMK A01 T03500160  RH  032%=      5-min Rain = 0
KCH1 112211Z 16009KT 35/16 A2999 RMK A01 T03510163  RH  033%=      5-min Rain = 0
KCH1 112212Z 15007KT 35/15 A2999 RMK A01 T03510153  RH  031%=      5-min Rain = 0
KCH1 112213Z 15007KT 35/16 A2999 RMK A01 T03490159  RH  032%=      5-min Rain = 0
KCH1 112214Z 18006KT 35/16 A2999 RMK A01 T03490158  RH  032%=      5-min Rain = 0
KCH1 112215Z 19007KT 35/16 A2999 RMK A01 T03500155  RH  031%=      5-min Rain = 0
KCH1 112216Z 19009KT 35/16 A2999 RMK A01 T03500162  RH  033%=      5-min Rain = 0
KCH1 112217Z 19010KT 35/16 A2999 RMK A01 T03510158  RH  032%=      5-min Rain = 0
KCH1 112218Z 19010KT 35/16 A2999 RMK A01 T03510156  RH  031%=      5-min Rain = 0
KCH1 112219Z 18010KT 35/16 A2999 RMK A01 T03500159  RH  032%=      5-min Rain = 0
KCH1 112220Z 17010KT 35/16 A2999 RMK A01 T03500158  RH  032%=      5-min Rain = 0
KCH1 112221Z 18007KT 35/16 A2999 RMK A01 T03490161  RH  033%=      5-min Rain = 0
KCH1 112222Z 18007KT 35/16 A2999 RMK A01 T03490161  RH  033%=      5-min Rain = 0
KCH1 112223Z 18006G11KT 35/16 A2999 RMK A01 T03500164  RH  033%=      5-min Rain = 0
KCH1 112224Z 16011KT 35/16 A2999 RMK A01 T03500164  RH  033%=      5-min Rain = 0
KCH1 112225Z 16012KT 35/16 A2999 RMK A01 T03490161  RH  033%=      5-min Rain = 0
KCH1 112226Z 18010KT 35/16 A2999 RMK A01 T03460159  RH  033%=      5-min Rain = 0
KCH1 112227Z 16009KT 35/16 A2999 RMK A01 T03450158  RH  033%=      5-min Rain = 0
KCH1 112228Z 15010KT 35/16 A2999 RMK A01 T03450159  RH  033%=      5-min Rain = 0
KCH1 112229Z 15008KT 35/16 A2999 RMK A01 T03470159  RH  033%=      5-min Rain = 0
KCH1 112230Z 17006KT 35/17 A2999 RMK A01 T03480168  RH  034%=      5-min Rain = 0
KCH1 112231Z 17009KT 35/17 A2999 RMK A01 T03500168  RH  034%=      5-min Rain = 0
KCH1 112232Z 16008KT 35/16 A2999 RMK A01 T03510159  RH  032%=      5-min Rain = 0
KCH1 112233Z 17005KT 35/16 A2998 RMK A01 T03500163  RH  033%=      5-min Rain = 0
KCH1 112234Z 17006KT 35/16 A2998 RMK A01 T03500157  RH  032%=      5-min Rain = 0
KCH1 112235Z 18006KT 35/16 A2998 RMK A01 T03500162  RH  033%=      5-min Rain = 0
KCH1 112236Z 17008KT 35/16 A2998 RMK A01 T03500159  RH  032%=      5-min Rain = 0
KCH1 112237Z 15006KT 35/16 A2998 RMK A01 T03500164  RH  033%=      5-min Rain = 0
KCH1 112238Z 15009KT 35/17 A2998 RMK A01 T03500169  RH  034%=      5-min Rain = 0
KCH1 112239Z 15009KT 35/16 A2998 RMK A01 T03510163  RH  033%=      5-min Rain = 0
KCH1 112240Z 14010KT 35/16 A2998 RMK A01 T03510164  RH  033%=      5-min Rain = 0
KCH1 112241Z 15010KT 35/16 A2998 RMK A01 T03500162  RH  033%=      5-min Rain = 0
KCH1 112242Z 14010KT 35/16 A2998 RMK A01 T03500161  RH  033%=      5-min Rain = 0
KCH1 112243Z 15008KT 35/16 A2998 RMK A01 T03490157  RH  032%=      5-min Rain = 0
KCH1 112244Z 13006KT 35/16 A2998 RMK A01 T03480157  RH  032%=      5-min Rain = 0
KCH1 112245Z 15007KT 35/17 A2998 RMK A01 T03470165  RH  034%=      5-min Rain = 0
KCH1 112246Z 15007KT 35/16 A2998 RMK A01 T03480159  RH  032%=      5-min Rain = 0
KCH1 112247Z 13008KT 35/16 A2998 RMK A01 T03490164  RH  033%=      5-min Rain = 0
KCH1 112248Z 14010KT 35/17 A2998 RMK A01 T03490165  RH  033%=      5-min Rain = 0
KCH1 112249Z 14013KT 35/16 A2998 RMK A01 T03490164  RH  033%=      5-min Rain = 0
KCH1 112250Z 15012KT 35/16 A2998 RMK A01 T03490163  RH  033%=      5-min Rain = 0
KCH1 112251Z 15011KT 35/16 A2998 RMK A01 T03480161  RH  033%=      5-min Rain = 0
KCH1 112252Z 16010KT 35/16 A2998 RMK A01 T03470162  RH  033%=      5-min Rain = 0
KCH1 112253Z 15009KT 34/16 A2998 RMK A01 T03440162  RH  034%=      5-min Rain = 0
KCH1 112254Z 15006KT 34/16 A2998 RMK A01 T03410163  RH  035%=      5-min Rain = 0
KCH1 112255Z 14008KT 34/17 A2998 RMK A01 T03380166  RH  036%=      5-min Rain = 0
KCH1 112256Z 14010KT 34/16 A2998 RMK A01 T03360160  RH  035%=      5-min Rain = 0
KCH1 112257Z 14009KT 34/16 A2998 RMK A01 T03350158  RH  035%=      5-min Rain = 0
KCH1 112258Z 14007KT 34/16 A2998 RMK A01 T03350160  RH  035%=      5-min Rain = 0
KCH1 112259Z 14006KT 34/17 A2998 RMK A01 T03350166  RH  036%=      5-min Rain = 0
KCH1 112300Z 13007KT 34/16 A2998 RMK A01 T03360164  RH  036%=      5-min Rain = 0
KCH1 112301Z 13007KT 34/16 A2998 RMK A01 T03390162  RH  035%=      5-min Rain = 0
KCH1 112302Z 12007KT 34/16 A2998 RMK A01 T03410159  RH  034%=      5-min Rain = 0
KCH1 112303Z 13007KT 34/17 A2998 RMK A01 T03430165  RH  035%=      5-min Rain = 0
KCH1 112304Z 13009KT 35/16 A2998 RMK A01 T03450162  RH  034%=      5-min Rain = 0
KCH1 112305Z 14011KT 35/16 A2998 RMK A01 T03460158  RH  033%=      5-min Rain = 0
KCH1 112306Z 14009KT 35/16 A2998 RMK A01 T03470159  RH  033%=      5-min Rain = 0
KCH1 112307Z 14008KT 35/16 A2998 RMK A01 T03460160  RH  033%=      5-min Rain = 0
KCH1 112308Z 13006KT 35/16 A2998 RMK A01 T03470159  RH  033%=      5-min Rain = 0
KCH1 112309Z 14006KT 35/16 A2997 RMK A01 T03470164  RH  034%=      5-min Rain = 0
KCH1 112310Z 14008KT 35/16 A2997 RMK A01 T03480161  RH  033%=      5-min Rain = 0
KCH1 112311Z 14008KT 35/16 A2997 RMK A01 T03490164  RH  033%=      5-min Rain = 0
KCH1 112312Z 13009KT 35/16 A2997 RMK A01 T03490160  RH  032%=      5-min Rain = 0
KCH1 112313Z 13007KT 35/16 A2997 RMK A01 T03490162  RH  033%=      5-min Rain = 0
KCH1 112314Z 13006KT 35/16 A2997 RMK A01 T03490163  RH  033%=      5-min Rain = 0
KCH1 112315Z 14007KT 35/16 A2997 RMK A01 T03490162  RH  033%=      5-min Rain = 0
KCH1 112316Z 14009KT 35/17 A2997 RMK A01 T03490165  RH  033%=      5-min Rain = 0
KCH1 112317Z 14006KT 35/17 A2997 RMK A01 T03490166  RH  034%=      5-min Rain = 0
KCH1 112318Z 13008KT 35/17 A2997 RMK A01 T03500170  RH  034%=      5-min Rain = 0
KCH1 112319Z 14011KT 35/16 A2997 RMK A01 T03500164  RH  033%=      5-min Rain = 0
KCH1 112320Z 14012KT 35/16 A2997 RMK A01 T03490157  RH  032%=      5-min Rain = 0
KCH1 112321Z 14010KT 35/16 A2997 RMK A01 T03470160  RH  033%=      5-min Rain = 0
KCH1 112322Z 15010KT 35/16 A2997 RMK A01 T03460160  RH  033%=      5-min Rain = 0
KCH1 112323Z 14008KT 35/16 A2997 RMK A01 T03460163  RH  034%=      5-min Rain = 0
KCH1 112324Z 14009KT 35/17 A2997 RMK A01 T03460165  RH  034%=      5-min Rain = 0
KCH1 112325Z 14008KT 35/16 A2997 RMK A01 T03460162  RH  033%=      5-min Rain = 0
KCH1 112326Z 14007KT 35/17 A2997 RMK A01 T03450165  RH  034%=      5-min Rain = 0
KCH1 112327Z 15008KT 34/16 A2997 RMK A01 T03440164  RH  034%=      5-min Rain = 0
KCH1 112328Z 16007KT 34/16 A2997 RMK A01 T03430162  RH  034%=      5-min Rain = 0
KCH1 112329Z 16007KT 35/16 A2997 RMK A01 T03450162  RH  034%=      5-min Rain = 0
KCH1 112330Z 14008KT 35/17 A2997 RMK A01 T03460165  RH  034%=      5-min Rain = 0
KCH1 112331Z 15010KT 35/16 A2997 RMK A01 T03460160  RH  033%=      5-min Rain = 0
KCH1 112332Z 15010KT 34/16 A2997 RMK A01 T03440156  RH  033%=      5-min Rain = 0
KCH1 112333Z 16008KT 34/16 A2997 RMK A01 T03410159  RH  034%=      5-min Rain = 0
KCH1 112334Z 17009KT 34/16 A2997 RMK A01 T03400156  RH  033%=      5-min Rain = 0
KCH1 112335Z 16007KT 34/16 A2997 RMK A01 T03400156  RH  033%=      5-min Rain = 0
KCH1 112336Z 16009KT 34/16 A2997 RMK A01 T03400156  RH  033%=      5-min Rain = 0
KCH1 112337Z 16009KT 34/15 A2997 RMK A01 T03410153  RH  032%=      5-min Rain = 0
KCH1 112338Z 15006KT 34/16 A2997 RMK A01 T03410159  RH  034%=      5-min Rain = 0
KCH1 112339Z 15007KT 34/16 A2997 RMK A01 T03420159  RH  034%=      5-min Rain = 0
KCH1 112340Z 15008KT 34/16 A2997 RMK A01 T03410157  RH  033%=      5-min Rain = 0
KCH1 112341Z 14010KT 34/16 A2997 RMK A01 T03400157  RH  033%=      5-min Rain = 0
KCH1 112342Z 15007KT 34/16 A2997 RMK A01 T03390156  RH  033%=      5-min Rain = 0
KCH1 112343Z 16007KT 34/16 A2997 RMK A01 T03380157  RH  034%=      5-min Rain = 0
KCH1 112344Z 16008KT 34/16 A2997 RMK A01 T03370157  RH  034%=      5-min Rain = 0
KCH1 112345Z 16007KT 34/16 A2997 RMK A01 T03370157  RH  034%=      5-min Rain = 0
KCH1 112346Z 16006KT 34/16 A2997 RMK A01 T03360160  RH  035%=      5-min Rain = 0
KCH1 112347Z 15006KT 34/16 A2997 RMK A01 T03350159  RH  035%=      5-min Rain = 0
KCH1 112348Z 15007KT 33/16 A2997 RMK A01 T03340155  RH  034%=      5-min Rain = 0
KCH1 112349Z 18004KT 33/16 A2997 RMK A01 T03340156  RH  034%=      5-min Rain = 0
KCH1 112350Z 14003KT 33/16 A2997 RMK A01 T03340161  RH  035%=      5-min Rain = 0
KCH1 112351Z 15004KT 33/16 A2997 RMK A01 T03340164  RH  036%=      5-min Rain = 0
KCH1 112352Z 16005KT 33/17 A2997 RMK A01 T03330166  RH  037%=      5-min Rain = 0
KCH1 112353Z 15005KT 33/16 A2997 RMK A01 T03330164  RH  036%=      5-min Rain = 0
KCH1 112354Z 15005KT 34/16 A2997 RMK A01 T03350162  RH  036%=      5-min Rain = 0
KCH1 112355Z 15005KT 34/16 A2997 RMK A01 T03370163  RH  036%=      5-min Rain = 0
KCH1 112356Z 14005KT 34/17 A2997 RMK A01 T03380166  RH  036%=      5-min Rain = 0
KCH1 112357Z 15004KT 34/17 A2997 RMK A01 T03390168  RH  036%=      5-min Rain = 0
KCH1 112358Z 15005KT 34/17 A2997 RMK A01 T03400168  RH  036%=      5-min Rain = 0
KCH1 112359Z 14006KT 34/16 A2997 RMK A01 T03410161  RH  034%=      5-min Rain = 0
KCH1 120000Z 15006KT 34/16 A2997 RMK A01 T03420161  RH  034%=      5-min Rain = 0
KCH1 120001Z 15006KT 34/16 A2997 RMK A01 T03420159  RH  033%=      5-min Rain = 0
KCH1 120002Z 15006KT 34/16 A2997 RMK A01 T03430159  RH  033%=      5-min Rain = 0
KCH1 120003Z 14007KT 34/16 A2997 RMK A01 T03430157  RH  033%=      5-min Rain = 0
KCH1 120004Z 14006KT 34/16 A2997 RMK A01 T03440160  RH  034%=      5-min Rain = 0
KCH1 120005Z 15006KT 34/16 A2997 RMK A01 T03440159  RH  033%=      5-min Rain = 0
KCH1 120006Z 17004KT 34/16 A2997 RMK A01 T03440162  RH  034%=      5-min Rain = 0
KCH1 120007Z 16006KT 34/16 A2997 RMK A01 T03440164  RH  034%=      5-min Rain = 0
KCH1 120008Z 14007KT 34/17 A2997 RMK A01 T03430165  RH  035%=      5-min Rain = 0
KCH1 120009Z 14006KT 34/17 A2997 RMK A01 T03420166  RH  035%=      5-min Rain = 0
KCH1 120010Z 15006KT 34/16 A2997 RMK A01 T03400164  RH  035%=      5-min Rain = 0
KCH1 120011Z 14009KT 34/16 A2997 RMK A01 T03390161  RH  034%=      5-min Rain = 0
KCH1 120012Z 14010KT 34/16 A2997 RMK A01 T03390157  RH  034%=      5-min Rain = 0
KCH1 120013Z 13009KT 34/15 A2997 RMK A01 T03390154  RH  033%=      5-min Rain = 0
KCH1 120014Z 14007KT 34/16 A2997 RMK A01 T03390159  RH  034%=      5-min Rain = 0
KCH1 120015Z 14006KT 34/16 A2997 RMK A01 T03390162  RH  035%=      5-min Rain = 0
KCH1 120016Z 15007KT 34/16 A2997 RMK A01 T03390163  RH  035%=      5-min Rain = 0
KCH1 120017Z 15006KT 34/16 A2997 RMK A01 T03390164  RH  035%=      5-min Rain = 0
KCH1 120018Z 15006KT 34/16 A2997 RMK A01 T03390164  RH  035%=      5-min Rain = 0
KCH1 120019Z 15006KT 34/16 A2997 RMK A01 T03390163  RH  035%=      5-min Rain = 0
KCH1 120020Z 15006KT 34/16 A2997 RMK A01 T03390163  RH  035%=      5-min Rain = 0
KCH1 120021Z 14006KT 34/17 A2997 RMK A01 T03390166  RH  036%=      5-min Rain = 0
KCH1 120022Z 15008KT 34/16 A2997 RMK A01 T03390162  RH  035%=      5-min Rain = 0
KCH1 120023Z 15008KT 34/16 A2997 RMK A01 T03390163  RH  035%=      5-min Rain = 0
KCH1 120024Z 15007KT 34/16 A2997 RMK A01 T03390161  RH  034%=      5-min Rain = 0
KCH1 120025Z 15007KT 34/16 A2997 RMK A01 T03390161  RH  034%=      5-min Rain = 0
KCH1 120026Z 15006KT 34/16 A2997 RMK A01 T03390163  RH  035%=      5-min Rain = 0
KCH1 120027Z 15008KT 34/16 A2997 RMK A01 T03390162  RH  035%=      5-min Rain = 0
KCH1 120028Z 14007KT 34/16 A2997 RMK A01 T03390158  RH  034%=      5-min Rain = 0
KCH1 120029Z 15008KT 34/16 A2997 RMK A01 T03390160  RH  034%=      5-min Rain = 0
KCH1 120030Z 15008KT 34/16 A2997 RMK A01 T03390158  RH  034%=      5-min Rain = 0
KCH1 120031Z 15007KT 34/16 A2997 RMK A01 T03390158  RH  034%=      5-min Rain = 0
KCH1 120032Z 17006KT 34/16 A2997 RMK A01 T03390163  RH  035%=      5-min Rain = 0
KCH1 120033Z 16005KT 34/16 A2997 RMK A01 T03390163  RH  035%=      5-min Rain = 0
KCH1 120034Z 16006KT 34/16 A2997 RMK A01 T03390161  RH  035%=      5-min Rain = 0
KCH1 120035Z 16006KT 34/16 A2997 RMK A01 T03390155  RH  033%=      5-min Rain = 0
KCH1 120036Z 14005KT 34/16 A2997 RMK A01 T03390159  RH  034%=      5-min Rain = 0
KCH1 120037Z 13006KT 34/16 A2997 RMK A01 T03390163  RH  035%=      5-min Rain = 0
KCH1 120038Z 13008KT 34/16 A2997 RMK A01 T03380159  RH  034%=      5-min Rain = 0
KCH1 120039Z 15009KT 34/16 A2997 RMK A01 T03380155  RH  033%=      5-min Rain = 0
KCH1 120040Z 15008KT 34/15 A2997 RMK A01 T03380154  RH  033%=      5-min Rain = 0
KCH1 120041Z 14005KT 34/16 A2997 RMK A01 T03380160  RH  034%=      5-min Rain = 0
KCH1 120042Z 14006KT 34/16 A2997 RMK A01 T03380162  RH  035%=      5-min Rain = 0
KCH1 120043Z 13006KT 34/16 A2997 RMK A01 T03360161  RH  035%=      5-min Rain = 0
KCH1 120044Z 13006KT 34/17 A2997 RMK A01 T03360165  RH  036%=      5-min Rain = 0
KCH1 120045Z 13005KT 34/16 A2997 RMK A01 T03350161  RH  035%=      5-min Rain = 0
KCH1 120046Z 13009KT 34/16 A2998 RMK A01 T03350161  RH  035%=      5-min Rain = 0
KCH1 120047Z 13007KT 34/16 A2998 RMK A01 T03350158  RH  035%=      5-min Rain = 0
KCH1 120048Z 14008KT 34/16 A2998 RMK A01 T03350157  RH  035%=      5-min Rain = 0
KCH1 120049Z 14007KT 34/16 A2998 RMK A01 T03350159  RH  035%=      5-min Rain = 0
KCH1 120050Z 14005KT 34/16 A2998 RMK A01 T03350162  RH  036%=      5-min Rain = 0
KCH1 120051Z 14005KT 34/17 A2998 RMK A01 T03350167  RH  037%=      5-min Rain = 0
KCH1 120052Z 14006KT 33/17 A2998 RMK A01 T03340167  RH  037%=      5-min Rain = 0
KCH1 120053Z 14005KT 33/16 A2998 RMK A01 T03330163  RH  036%=      5-min Rain = 0
KCH1 120054Z 14005KT 33/16 A2998 RMK A01 T03330164  RH  037%=      5-min Rain = 0
KCH1 120055Z 14006KT 33/17 A2998 RMK A01 T03330167  RH  037%=      5-min Rain = 0
KCH1 120056Z 14005KT 33/17 A2998 RMK A01 T03320165  RH  037%=      5-min Rain = 0
KCH1 120057Z 14006KT 33/16 A2998 RMK A01 T03320163  RH  036%=      5-min Rain = 0
KCH1 120058Z 14005KT 33/17 A2998 RMK A01 T03320167  RH  037%=      5-min Rain = 0
KCH1 120059Z 14006KT 33/17 A2998 RMK A01 T03320168  RH  038%=      5-min Rain = 0
KCH1 120100Z 14004KT 33/17 A2998 RMK A01 T03310167  RH  038%=      5-min Rain = 0
KCH1 120101Z 14005KT 33/17 A2998 RMK A01 T03310167  RH  038%=      5-min Rain = 0
KCH1 120102Z 15005KT 33/17 A2998 RMK A01 T03300167  RH  038%=      5-min Rain = 0
KCH1 120103Z 14006KT 33/17 A2998 RMK A01 T03300167  RH  038%=      5-min Rain = 0
KCH1 120104Z 13005KT 33/17 A2998 RMK A01 T03300167  RH  038%=      5-min Rain = 0
KCH1 120105Z 14005KT 33/17 A2998 RMK A01 T03300166  RH  038%=      5-min Rain = 0
KCH1 120106Z 14005KT 33/17 A2998 RMK A01 T03290167  RH  038%=      5-min Rain = 0
KCH1 120107Z 14006KT 33/17 A2998 RMK A01 T03280166  RH  038%=      5-min Rain = 0
KCH1 120108Z 15005KT 33/17 A2998 RMK A01 T03280167  RH  038%=      5-min Rain = 0
KCH1 120109Z 14005KT 33/17 A2998 RMK A01 T03260167  RH  039%=      5-min Rain = 0
KCH1 120110Z 14004KT 33/17 A2998 RMK A01 T03250168  RH  039%=      5-min Rain = 0
KCH1 120111Z 14004KT 33/17 A2998 RMK A01 T03250167  RH  039%=      5-min Rain = 0
KCH1 120112Z 14005KT 32/17 A2998 RMK A01 T03240165  RH  039%=      5-min Rain = 0
KCH1 120113Z 13005KT 32/17 A2998 RMK A01 T03240165  RH  038%=      5-min Rain = 0
KCH1 120114Z 13004KT 32/17 A2998 RMK A01 T03240166  RH  039%=      5-min Rain = 0
KCH1 120115Z 13005KT 32/17 A2998 RMK A01 T03240167  RH  039%=      5-min Rain = 0
KCH1 120116Z 13005KT 32/17 A2998 RMK A01 T03230168  RH  040%=      5-min Rain = 0
KCH1 120117Z 13005KT 32/17 A2998 RMK A01 T03220170  RH  040%=      5-min Rain = 0
KCH1 120118Z 13005KT 32/17 A2998 RMK A01 T03210168  RH  040%=      5-min Rain = 0
KCH1 120119Z 13005KT 32/17 A2998 RMK A01 T03210167  RH  040%=      5-min Rain = 0
KCH1 120120Z 14005KT 32/17 A2998 RMK A01 T03200167  RH  040%=      5-min Rain = 0
KCH1 120121Z 13004KT 32/17 A2998 RMK A01 T03200168  RH  040%=      5-min Rain = 0
KCH1 120122Z 14004KT 32/17 A2998 RMK A01 T03200168  RH  040%=      5-min Rain = 0
KCH1 120123Z 13004KT 32/17 A2998 RMK A01 T03190169  RH  041%=      5-min Rain = 0
KCH1 120124Z 14005KT 32/17 A2998 RMK A01 T03190169  RH  041%=      5-min Rain = 0
KCH1 120125Z 14005KT 32/17 A2998 RMK A01 T03180168  RH  040%=      5-min Rain = 0
KCH1 120126Z 13004KT 32/17 A2998 RMK A01 T03180167  RH  040%=      5-min Rain = 0
KCH1 120127Z 13005KT 32/17 A2998 RMK A01 T03180167  RH  040%=      5-min Rain = 0
KCH1 120128Z 13005KT 32/17 A2998 RMK A01 T03180167  RH  040%=      5-min Rain = 0
KCH1 120129Z 13005KT 32/17 A2998 RMK A01 T03180166  RH  040%=      5-min Rain = 0
KCH1 120130Z 13004KT 32/17 A2998 RMK A01 T03170168  RH  041%=      5-min Rain = 0
KCH1 120131Z 13005KT 32/17 A2998 RMK A01 T03170168  RH  041%=      5-min Rain = 0
KCH1 120132Z 13005KT 32/17 A2998 RMK A01 T03160166  RH  041%=      5-min Rain = 0
KCH1 120133Z 13004KT 32/17 A2998 RMK A01 T03160168  RH  041%=      5-min Rain = 0
KCH1 120134Z 13004KT 32/17 A2998 RMK A01 T03150169  RH  042%=      5-min Rain = 0
KCH1 120135Z 13004KT 31/17 A2998 RMK A01 T03140168  RH  041%=      5-min Rain = 0
KCH1 120136Z 13004KT 31/17 A2998 RMK A01 T03140167  RH  041%=      5-min Rain = 0
KCH1 120137Z 13004KT 31/17 A2998 RMK A01 T03140167  RH  041%=      5-min Rain = 0
KCH1 120138Z 13005KT 31/17 A2998 RMK A01 T03140167  RH  041%=      5-min Rain = 0
KCH1 120139Z 13005KT 31/17 A2998 RMK A01 T03130168  RH  042%=      5-min Rain = 0
KCH1 120140Z 12005KT 31/17 A2998 RMK A01 T03120168  RH  042%=      5-min Rain = 0
KCH1 120141Z 12005KT 31/17 A2998 RMK A01 T03110168  RH  042%=      5-min Rain = 0
KCH1 120142Z 12005KT 31/17 A2998 RMK A01 T03100168  RH  042%=      5-min Rain = 0
KCH1 120143Z 12005KT 31/17 A2999 RMK A01 T03100167  RH  042%=      5-min Rain = 0
KCH1 120144Z 12004KT 31/17 A2999 RMK A01 T03090167  RH  042%=      5-min Rain = 0
KCH1 120145Z 12004KT 31/17 A2999 RMK A01 T03100168  RH  042%=      5-min Rain = 0
KCH1 120146Z 12004KT 31/17 A2999 RMK A01 T03090167  RH  042%=      5-min Rain = 0
KCH1 120147Z 13004KT 31/17 A2999 RMK A01 T03090166  RH  042%=      5-min Rain = 0
KCH1 120148Z 12004KT 31/17 A2999 RMK A01 T03090166  RH  042%=      5-min Rain = 0
KCH1 120149Z 12004KT 31/17 A2999 RMK A01 T03090166  RH  042%=      5-min Rain = 0
KCH1 120150Z 12004KT 31/17 A2999 RMK A01 T03080166  RH  042%=      5-min Rain = 0
KCH1 120151Z 13004KT 31/17 A2999 RMK A01 T03080166  RH  042%=      5-min Rain = 0
KCH1 120152Z 12004KT 31/17 A2999 RMK A01 T03090166  RH  042%=      5-min Rain = 0
KCH1 120153Z 12004KT 31/17 A2999 RMK A01 T03090166  RH  042%=      5-min Rain = 0
KCH1 120154Z 12004KT 31/17 A2999 RMK A01 T03080165  RH  042%=      5-min Rain = 0
KCH1 120155Z 12005KT 31/17 A2999 RMK A01 T03080166  RH  042%=      5-min Rain = 0
KCH1 120156Z 12005KT 31/17 A2999 RMK A01 T03070166  RH  043%=      5-min Rain = 0
KCH1 120157Z 12004KT 31/17 A2999 RMK A01 T03070167  RH  043%=      5-min Rain = 0
KCH1 120158Z 12004KT 31/17 A2999 RMK A01 T03060166  RH  043%=      5-min Rain = 0
KCH1 120159Z 12004KT 31/17 A2999 RMK A01 T03060166  RH  043%=      5-min Rain = 0
KCH1 120200Z 12004KT 31/17 A2999 RMK A01 T03050168  RH  044%=      5-min Rain = 0
KCH1 120201Z 12004KT 31/17 A2999 RMK A01 T03050167  RH  044%=      5-min Rain = 0
KCH1 120202Z 12004KT 30/17 A2999 RMK A01 T03040167  RH  044%=      5-min Rain = 0
KCH1 120203Z 12004KT 30/17 A2999 RMK A01 T03040167  RH  044%=      5-min Rain = 0
KCH1 120204Z 11004KT 30/17 A2999 RMK A01 T03040168  RH  044%=      5-min Rain = 0
KCH1 120205Z 12004KT 30/17 A2999 RMK A01 T03030168  RH  044%=      5-min Rain = 0
KCH1 120206Z 12004KT 30/17 A30 RMK A01 T03030168  RH  044%=      5-min Rain = 0
KCH1 120207Z 11005KT 30/17 A30 RMK A01 T03020168  RH  044%=      5-min Rain = 0
KCH1 120208Z 12004KT 30/17 A30 RMK A01 T03020169  RH  045%=      5-min Rain = 0
KCH1 120209Z 12005KT 30/17 A30 RMK A01 T03010169  RH  045%=      5-min Rain = 0
KCH1 120210Z 12005KT 30/17 A30 RMK A01 T03010169  RH  045%=      5-min Rain = 0
KCH1 120211Z 12005KT 30/17 A30 RMK A01 T03000169  RH  045%=      5-min Rain = 0
KCH1 120212Z 12005KT 30/17 A30 RMK A01 T02990168  RH  045%=      5-min Rain = 0
KCH1 120213Z 12005KT 30/17 A30 RMK A01 T02990168  RH  045%=      5-min Rain = 0
KCH1 120214Z 12005KT 30/17 A30 RMK A01 T02990169  RH  045%=      5-min Rain = 0
KCH1 120215Z 12005KT 30/17 A30 RMK A01 T02990168  RH  045%=      5-min Rain = 0
KCH1 120216Z 12005KT 30/17 A30 RMK A01 T02990168  RH  046%=      5-min Rain = 0
KCH1 120217Z 12005KT 30/17 A30 RMK A01 T02980168  RH  046%=      5-min Rain = 0
KCH1 120218Z 12004KT 30/17 A30 RMK A01 T02980168  RH  046%=      5-min Rain = 0
KCH1 120219Z 12005KT 30/17 A30 RMK A01 T02970168  RH  046%=      5-min Rain = 0
KCH1 120220Z 12005KT 30/17 A30 RMK A01 T02970167  RH  045%=      5-min Rain = 0
KCH1 120221Z 12005KT 30/17 A30 RMK A01 T02980167  RH  045%=      5-min Rain = 0
KCH1 120222Z 12004KT 30/17 A30 RMK A01 T02980168  RH  046%=      5-min Rain = 0
KCH1 120223Z 12004KT 30/17 A30 RMK A01 T02970168  RH  046%=      5-min Rain = 0
KCH1 120224Z 12005KT 30/17 A30 RMK A01 T02970168  RH  046%=      5-min Rain = 0
KCH1 120225Z 12004KT 30/17 A30 RMK A01 T02960168  RH  046%=      5-min Rain = 0
KCH1 120226Z 12004KT 30/17 A30 RMK A01 T02960167  RH  046%=      5-min Rain = 0
KCH1 120227Z 12004KT 30/17 A30 RMK A01 T02960168  RH  046%=      5-min Rain = 0
KCH1 120228Z 12004KT 30/17 A30 RMK A01 T02950168  RH  046%=      5-min Rain = 0
KCH1 120229Z 12004KT 30/17 A3001 RMK A01 T02950167  RH  046%=      5-min Rain = 0
KCH1 120230Z 12004KT 30/17 A3001 RMK A01 T02950167  RH  046%=      5-min Rain = 0
KCH1 120231Z 12004KT 30/17 A3001 RMK A01 T02950166  RH  046%=      5-min Rain = 0
KCH1 120232Z 12004KT 30/17 A3001 RMK A01 T02950166  RH  046%=      5-min Rain = 0
KCH1 120233Z 12004KT 30/17 A3001 RMK A01 T02950165  RH  046%=      5-min Rain = 0
KCH1 120234Z 12004KT 30/17 A3001 RMK A01 T02950166  RH  046%=      5-min Rain = 0
KCH1 120235Z 12004KT 30/17 A3001 RMK A01 T02950166  RH  046%=      5-min Rain = 0
KCH1 120236Z 12003KT 30/17 A3001 RMK A01 T02950167  RH  046%=      5-min Rain = 0
KCH1 120237Z 12004KT 30/17 A3001 RMK A01 T02950167  RH  046%=      5-min Rain = 0
KCH1 120238Z 12004KT 29/17 A3001 RMK A01 T02940169  RH  047%=      5-min Rain = 0
KCH1 120239Z 12003KT 29/17 A3001 RMK A01 T02940169  RH  047%=      5-min Rain = 0
KCH1 120240Z 11003KT 29/17 A3001 RMK A01 T02930169  RH  047%=      5-min Rain = 0
KCH1 120241Z 11003KT 29/17 A3001 RMK A01 T02920170  RH  048%=      5-min Rain = 0
KCH1 120242Z 12003KT 29/17 A3001 RMK A01 T02910170  RH  048%=      5-min Rain = 0
KCH1 120243Z 11003KT 29/17 A3001 RMK A01 T02900168  RH  048%=      5-min Rain = 0
KCH1 120244Z 10003KT 29/17 A3001 RMK A01 T02900168  RH  048%=      5-min Rain = 0
KCH1 120245Z 11003KT 29/17 A3001 RMK A01 T02900167  RH  048%=      5-min Rain = 0
KCH1 120246Z 10002KT 29/17 A3001 RMK A01 T02890167  RH  048%=      5-min Rain = 0
KCH1 120247Z 10002KT 29/17 A3001 RMK A01 T02880167  RH  048%=      5-min Rain = 0
KCH1 120248Z 10002KT 29/17 A3001 RMK A01 T02880167  RH  048%=      5-min Rain = 0
KCH1 120249Z 10002KT 29/17 A3001 RMK A01 T02870168  RH  048%=      5-min Rain = 0
KCH1 120250Z 09002KT 29/17 A3001 RMK A01 T02860168  RH  049%=      5-min Rain = 0
KCH1 120251Z 09002KT 29/17 A3001 RMK A01 T02860168  RH  049%=      5-min Rain = 0
KCH1 120252Z 09002KT 29/17 A3001 RMK A01 T02850168  RH  049%=      5-min Rain = 0
KCH1 120253Z 08002KT 28/17 A3001 RMK A01 T02840169  RH  050%=      5-min Rain = 0
KCH1 120254Z 08002KT 28/17 A3001 RMK A01 T02830168  RH  050%=      5-min Rain = 0
KCH1 120255Z 08002KT 28/17 A3001 RMK A01 T02830169  RH  050%=      5-min Rain = 0
KCH1 120256Z 08003KT 28/17 A3001 RMK A01 T02830169  RH  050%=      5-min Rain = 0
KCH1 120257Z 08002KT 28/17 A3002 RMK A01 T02830170  RH  050%=      5-min Rain = 0
KCH1 120258Z 08002KT 28/17 A3002 RMK A01 T02820171  RH  051%=      5-min Rain = 0
KCH1 120259Z 08002KT 28/17 A3002 RMK A01 T02820170  RH  051%=      5-min Rain = 0
KCH1 120300Z 09002KT 28/17 A3002 RMK A01 T02820170  RH  051%=      5-min Rain = 0
KCH1 120301Z 08002KT 28/17 A3002 RMK A01 T02810170  RH  051%=      5-min Rain = 0
KCH1 120302Z 10002KT 28/17 A3002 RMK A01 T02810169  RH  051%=      5-min Rain = 0
KCH1 120303Z 10002KT 28/17 A3002 RMK A01 T02810170  RH  051%=      5-min Rain = 0
KCH1 120304Z 11002KT 28/17 A3002 RMK A01 T02810171  RH  051%=      5-min Rain = 0
KCH1 120305Z 11003KT 28/17 A3002 RMK A01 T02800171  RH  051%=      5-min Rain = 0
KCH1 120306Z 11003KT 28/17 A3002 RMK A01 T02800171  RH  051%=      5-min Rain = 0
KCH1 120307Z 13004KT 28/17 A3002 RMK A01 T02810168  RH  050%=      5-min Rain = 0
KCH1 120308Z 12003KT 28/17 A3002 RMK A01 T02810169  RH  051%=      5-min Rain = 0
KCH1 120309Z 12003KT 28/17 A3002 RMK A01 T02820170  RH  051%=      5-min Rain = 0
KCH1 120310Z 12004KT 28/17 A3002 RMK A01 T02820169  RH  050%=      5-min Rain = 0
KCH1 120311Z 12004KT 28/17 A3002 RMK A01 T02820171  RH  051%=      5-min Rain = 0
KCH1 120312Z 12004KT 28/17 A3002 RMK A01 T02820169  RH  050%=      5-min Rain = 0
KCH1 120313Z 12004KT 28/17 A3002 RMK A01 T02820169  RH  050%=      5-min Rain = 0
KCH1 120314Z 12004KT 28/17 A3002 RMK A01 T02830169  RH  050%=      5-min Rain = 0
KCH1 120315Z 12004KT 28/17 A3002 RMK A01 T02830168  RH  050%=      5-min Rain = 0
KCH1 120316Z 12004KT 28/17 A3002 RMK A01 T02840169  RH  050%=      5-min Rain = 0
KCH1 120317Z 12004KT 28/17 A3002 RMK A01 T02840170  RH  050%=      5-min Rain = 0
KCH1 120318Z 12004KT 28/17 A3003 RMK A01 T02840169  RH  050%=      5-min Rain = 0
KCH1 120319Z 12004KT 28/17 A3003 RMK A01 T02840169  RH  050%=      5-min Rain = 0
KCH1 120320Z 12004KT 28/17 A3003 RMK A01 T02840169  RH  050%=      5-min Rain = 0
KCH1 120321Z 12004KT 28/17 A3003 RMK A01 T02840169  RH  050%=      5-min Rain = 0
KCH1 120322Z 12004KT 28/17 A3003 RMK A01 T02830170  RH  050%=      5-min Rain = 0
KCH1 120323Z 12003KT 28/17 A3003 RMK A01 T02830170  RH  051%=      5-min Rain = 0
KCH1 120324Z 12003KT 28/17 A3003 RMK A01 T02820170  RH  051%=      5-min Rain = 0
KCH1 120325Z 12003KT 28/17 A3003 RMK A01 T02820170  RH  051%=      5-min Rain = 0
KCH1 120326Z 12003KT 28/17 A3003 RMK A01 T02810169  RH  050%=      5-min Rain = 0
KCH1 120327Z 12003KT 28/17 A3003 RMK A01 T02810169  RH  050%=      5-min Rain = 0
KCH1 120328Z 12003KT 28/17 A3003 RMK A01 T02810169  RH  050%=      5-min Rain = 0
KCH1 120329Z 11003KT 28/17 A3003 RMK A01 T02820169  RH  050%=      5-min Rain = 0
KCH1 120330Z 11003KT 28/17 A3003 RMK A01 T02820170  RH  051%=      5-min Rain = 0
KCH1 120331Z 10003KT 28/17 A3003 RMK A01 T02820170  RH  051%=      5-min Rain = 0
KCH1 120332Z 10003KT 28/17 A3003 RMK A01 T02820171  RH  051%=      5-min Rain = 0
KCH1 120333Z 10003KT 28/17 A3003 RMK A01 T02810171  RH  051%=      5-min Rain = 0
KCH1 120334Z 11003KT 28/17 A3003 RMK A01 T02800171  RH  052%=      5-min Rain = 0
KCH1 120335Z 11003KT 28/17 A3003 RMK A01 T02800171  RH  052%=      5-min Rain = 0
KCH1 120336Z 11003KT 28/17 A3003 RMK A01 T02790171  RH  052%=      5-min Rain = 0
KCH1 120337Z 12004KT 28/17 A3004 RMK A01 T02790171  RH  052%=      5-min Rain = 0
KCH1 120338Z 12004KT 28/17 A3004 RMK A01 T02790171  RH  052%=      5-min Rain = 0
KCH1 120339Z 12004KT 28/17 A3004 RMK A01 T02790173  RH  052%=      5-min Rain = 0
KCH1 120340Z 12004KT 28/17 A3004 RMK A01 T02790173  RH  052%=      5-min Rain = 0
KCH1 120341Z 12004KT 28/17 A3004 RMK A01 T02790174  RH  053%=      5-min Rain = 0
KCH1 120342Z 13004KT 28/17 A3004 RMK A01 T02780174  RH  053%=      5-min Rain = 0
KCH1 120343Z 13004KT 28/17 A3004 RMK A01 T02780174  RH  053%=      5-min Rain = 0
KCH1 120344Z 13004KT 28/17 A3004 RMK A01 T02780174  RH  053%=      5-min Rain = 0
KCH1 120345Z 13005KT 28/17 A3004 RMK A01 T02780173  RH  053%=      5-min Rain = 0
KCH1 120346Z 13005KT 28/17 A3004 RMK A01 T02780172  RH  053%=      5-min Rain = 0
KCH1 120347Z 13005KT 28/17 A3004 RMK A01 T02780172  RH  052%=      5-min Rain = 0
KCH1 120348Z 14004KT 28/17 A3004 RMK A01 T02790173  RH  052%=      5-min Rain = 0
KCH1 120349Z 13004KT 28/17 A3004 RMK A01 T02780172  RH  052%=      5-min Rain = 0
KCH1 120350Z 13004KT 28/17 A3004 RMK A01 T02780172  RH  052%=      5-min Rain = 0
KCH1 120351Z 13005KT 28/17 A3004 RMK A01 T02790171  RH  052%=      5-min Rain = 0
KCH1 120352Z 14005KT 28/17 A3004 RMK A01 T02790173  RH  052%=      5-min Rain = 0
KCH1 120353Z 13004KT 28/17 A3004 RMK A01 T02790173  RH  052%=      5-min Rain = 0
KCH1 120354Z 13005KT 28/17 A3004 RMK A01 T02790172  RH  052%=      5-min Rain = 0
KCH1 120355Z 14006KT 28/17 A3004 RMK A01 T02790172  RH  052%=      5-min Rain = 0
KCH1 120356Z 14005KT 28/17 A3004 RMK A01 T02790173  RH  052%=      5-min Rain = 0
KCH1 120357Z 14006KT 28/17 A3004 RMK A01 T02790174  RH  053%=      5-min Rain = 0
KCH1 120358Z 13007KT 28/17 A3004 RMK A01 T02780172  RH  052%=      5-min Rain = 0
KCH1 120359Z 14006KT 28/17 A3004 RMK A01 T02780171  RH  052%=      5-min Rain = 0
KCH1 120400Z 14006KT 28/17 A3004 RMK A01 T02780172  RH  052%=      5-min Rain = 0
KCH1 120401Z 14007KT 28/17 A3004 RMK A01 T02790172  RH  052%=      5-min Rain = 0
KCH1 120402Z 14006KT 28/17 A3004 RMK A01 T02790171  RH  052%=      5-min Rain = 0
KCH1 120403Z 14007KT 28/17 A3005 RMK A01 T02800171  RH  052%=      5-min Rain = 0
KCH1 120404Z 14006KT 28/17 A3005 RMK A01 T02810172  RH  052%=      5-min Rain = 0
KCH1 120405Z 14007KT 28/17 A3005 RMK A01 T02800172  RH  052%=      5-min Rain = 0
KCH1 120406Z 14006KT 28/17 A3005 RMK A01 T02800171  RH  051%=      5-min Rain = 0
KCH1 120407Z 14007KT 28/17 A3005 RMK A01 T02810171  RH  051%=      5-min Rain = 0
KCH1 120408Z 15006KT 28/17 A3005 RMK A01 T02810171  RH  051%=      5-min Rain = 0
KCH1 120409Z 14006KT 28/17 A3005 RMK A01 T02810171  RH  051%=      5-min Rain = 0
KCH1 120410Z 14006KT 28/17 A3005 RMK A01 T02810170  RH  051%=      5-min Rain = 0
KCH1 120411Z 14007KT 28/17 A3005 RMK A01 T02810171  RH  051%=      5-min Rain = 0
KCH1 120412Z 15006KT 28/17 A3005 RMK A01 T02810170  RH  051%=      5-min Rain = 0
KCH1 120413Z 15005KT 28/17 A3005 RMK A01 T02820170  RH  051%=      5-min Rain = 0
KCH1 120414Z 14007KT 28/17 A3005 RMK A01 T02820170  RH  051%=      5-min Rain = 0
KCH1 120415Z 14006KT 28/17 A3005 RMK A01 T02820169  RH  050%=      5-min Rain = 0
KCH1 120416Z 14006KT 28/17 A3005 RMK A01 T02830171  RH  051%=      5-min Rain = 0
KCH1 120417Z 14006KT 28/17 A3005 RMK A01 T02820172  RH  051%=      5-min Rain = 0
KCH1 120418Z 14006KT 28/17 A3005 RMK A01 T02810172  RH  051%=      5-min Rain = 0
KCH1 120419Z 14006KT 28/17 A3005 RMK A01 T02810171  RH  051%=      5-min Rain = 0
KCH1 120420Z 14007KT 28/17 A3005 RMK A01 T02810171  RH  051%=      5-min Rain = 0
KCH1 120421Z 14006KT 28/17 A3005 RMK A01 T02800171  RH  051%=      5-min Rain = 0
KCH1 120422Z 14006KT 28/17 A3005 RMK A01 T02810170  RH  051%=      5-min Rain = 0
KCH1 120423Z 14006KT 28/17 A3005 RMK A01 T02810171  RH  051%=      5-min Rain = 0
KCH1 120424Z 14006KT 28/17 A3005 RMK A01 T02810172  RH  052%=      5-min Rain = 0
KCH1 120425Z 14006KT 28/17 A3005 RMK A01 T02800171  RH  051%=      5-min Rain = 0
KCH1 120426Z 15006KT 28/17 A3005 RMK A01 T02800171  RH  052%=      5-min Rain = 0
KCH1 120427Z 15006KT 28/17 A3005 RMK A01 T02800171  RH  052%=      5-min Rain = 0
KCH1 120428Z 15005KT 28/17 A3005 RMK A01 T02800171  RH  052%=      5-min Rain = 0
KCH1 120429Z 15005KT 28/17 A3005 RMK A01 T02800171  RH  052%=      5-min Rain = 0
KCH1 120430Z 15005KT 28/17 A3005 RMK A01 T02790172  RH  052%=      5-min Rain = 0
KCH1 120431Z 15005KT 28/17 A3005 RMK A01 T02790171  RH  052%=      5-min Rain = 0
KCH1 120432Z 15006KT 28/17 A3005 RMK A01 T02790171  RH  052%=      5-min Rain = 0
KCH1 120433Z 14005KT 28/17 A3005 RMK A01 T02790171  RH  052%=      5-min Rain = 0
KCH1 120434Z 14005KT 28/17 A3005 RMK A01 T02790172  RH  052%=      5-min Rain = 0
KCH1 120435Z 14005KT 28/17 A3005 RMK A01 T02790172  RH  052%=      5-min Rain = 0
KCH1 120436Z 14005KT 28/17 A3005 RMK A01 T02780171  RH  052%=      5-min Rain = 0
KCH1 120437Z 14005KT 28/17 A3005 RMK A01 T02780172  RH  052%=      5-min Rain = 0
KCH1 120438Z 14005KT 28/17 A3005 RMK A01 T02780172  RH  052%=      5-min Rain = 0
KCH1 120439Z 14005KT 28/17 A3005 RMK A01 T02780171  RH  052%=      5-min Rain = 0
KCH1 120440Z 14005KT 28/17 A3005 RMK A01 T02780171  RH  052%=      5-min Rain = 0
KCH1 120441Z 14005KT 28/17 A3005 RMK A01 T02780171  RH  052%=      5-min Rain = 0
KCH1 120442Z 14005KT 28/17 A3005 RMK A01 T02780171  RH  052%=      5-min Rain = 0
KCH1 120443Z 14005KT 28/17 A3005 RMK A01 T02780172  RH  052%=      5-min Rain = 0
KCH1 120444Z 14006KT 28/17 A3005 RMK A01 T02780172  RH  052%=      5-min Rain = 0
KCH1 120445Z 14005KT 28/17 A3005 RMK A01 T02770172  RH  053%=      5-min Rain = 0
KCH1 120446Z 14005KT 28/17 A3005 RMK A01 T02770172  RH  053%=      5-min Rain = 0
KCH1 120447Z 14005KT 28/17 A3005 RMK A01 T02770172  RH  053%=      5-min Rain = 0
KCH1 120448Z 14005KT 28/17 A3005 RMK A01 T02770172  RH  053%=      5-min Rain = 0
KCH1 120449Z 14005KT 28/17 A3005 RMK A01 T02770172  RH  053%=      5-min Rain = 0
KCH1 120450Z 14006KT 28/17 A3006 RMK A01 T02770172  RH  053%=      5-min Rain = 0
KCH1 120451Z 14005KT 28/17 A3006 RMK A01 T02770172  RH  053%=      5-min Rain = 0
KCH1 120452Z 14005KT 28/17 A3006 RMK A01 T02770172  RH  053%=      5-min Rain = 0
KCH1 120453Z 14005KT 28/17 A3006 RMK A01 T02760173  RH  053%=      5-min Rain = 0
KCH1 120454Z 14005KT 28/17 A3006 RMK A01 T02760173  RH  054%=      5-min Rain = 0
KCH1 120455Z 14005KT 28/17 A3006 RMK A01 T02750173  RH  054%=      5-min Rain = 0
KCH1 120456Z 14005KT 28/17 A3006 RMK A01 T02750173  RH  054%=      5-min Rain = 0
KCH1 120457Z 14006KT 27/17 A3006 RMK A01 T02740173  RH  054%=      5-min Rain = 0
KCH1 120458Z 14006KT 27/17 A3006 RMK A01 T02740172  RH  054%=      5-min Rain = 0
KCH1 120459Z 13005KT 27/17 A3006 RMK A01 T02740172  RH  054%=      5-min Rain = 0
KCH1 120500Z 13005KT 28/17 A3006 RMK A01 T02750172  RH  054%=      5-min Rain = 0

Page generated in 0.033 seconds.